Time,TemperatureF,DewpointF,PressureIn,WindDirection,WindDirectionDegrees,WindSpeedMPH,WindSpeedGustMPH,Humidity,HourlyPrecipIn,Conditions,Clouds,dailyrainin,SoftwareType,DateUTC
2013-02-24 00:00:00,41.1,40.6,29.82,NNE,14,0.0,0.0,98,0.00,RA,,0.00,WeatherDisplay:10.37,2013-02-24 05:00:00,
2013-02-24 00:01:00,41.4,40.9,29.82,NNE,14,0.0,0.0,98,0.00,RA,,0.00,WeatherDisplay:10.37,2013-02-24 05:01:00,
2013-02-24 00:05:00,40.9,40.4,29.82,NNE,14,0.0,0.0,98,0.00,RA,,0.00,WeatherDisplay:10.37,2013-02-24 05:05:00,
2013-02-24 00:06:00,40.8,40.3,29.82,NNE,14,0.0,0.0,98,0.00,RA,,0.00,WeatherDisplay:10.37,2013-02-24 05:06:00,
2013-02-24 00:10:00,40.7,40.7,29.81,NNE,14,0.0,0.0,100,0.00,,,0.00,WeatherDisplay:10.37,2013-02-24 05:10:00,
2013-02-24 00:11:00,40.3,40.3,29.81,NNE,14,0.0,0.0,100,0.00,,,0.00,WeatherDisplay:10.37,2013-02-24 05:11:00,
2013-02-24 00:15:00,40.4,40.4,29.81,NNE,14,0.0,0.0,100,0.00,,,0.00,WeatherDisplay:10.37,2013-02-24 05:15:00,
2013-02-24 00:16:00,40.4,40.4,29.81,NNE,14,0.0,0.0,100,0.00,,,0.00,WeatherDisplay:10.37,2013-02-24 05:16:00,
2013-02-24 00:17:00,40.6,40.6,29.81,NNE,14,0.0,0.0,100,0.00,,,0.00,WeatherDisplay:10.37,2013-02-24 05:17:00,
2013-02-24 00:20:00,40.4,40.4,29.81,NNE,14,0.0,0.0,100,0.00,,,0.00,WeatherDisplay:10.37,2013-02-24 05:20:00,
2013-02-24 00:21:00,40.9,40.9,29.81,NNE,14,0.0,0.0,100,0.00,,,0.00,WeatherDisplay:10.37,2013-02-24 05:21:00,
2013-02-24 00:22:00,40.8,40.8,29.81,NNE,14,0.0,0.0,100,0.00,,,0.00,WeatherDisplay:10.37,2013-02-24 05:22:00,
2013-02-24 00:25:00,40.7,40.7,29.81,NNE,14,0.0,0.0,100,0.00,,,0.00,WeatherDisplay:10.37,2013-02-24 05:25:00,
2013-02-24 00:27:00,40.9,40.9,29.82,NNE,14,0.0,0.0,100,0.00,,,0.00,WeatherDisplay:10.37,2013-02-24 05:27:00,
2013-02-24 00:30:00,40.7,40.7,29.82,NNE,14,0.0,0.0,100,0.00,,,0.00,WeatherDisplay:10.37,2013-02-24 05:30:00,
2013-02-24 00:32:00,40.8,40.8,29.82,NNE,14,0.0,0.0,100,0.00,,,0.00,WeatherDisplay:10.37,2013-02-24 05:32:00,
2013-02-24 00:36:00,40.2,40.2,29.82,NNE,14,0.0,0.0,100,0.00,,,0.00,WeatherDisplay:10.37,2013-02-24 05:36:00,
2013-02-24 00:37:00,40.5,40.5,29.82,NNE,14,0.0,0.0,100,0.00,,,0.00,WeatherDisplay:10.37,2013-02-24 05:37:00,
2013-02-24 00:41:00,40.3,40.3,29.82,NNE,14,0.0,0.0,100,0.00,,,0.00,WeatherDisplay:10.37,2013-02-24 05:41:00,
2013-02-24 00:42:00,40.4,40.4,29.82,NNE,14,0.0,0.0,100,0.00,,,0.00,WeatherDisplay:10.37,2013-02-24 05:42:00,
2013-02-24 00:46:00,40.2,40.2,29.82,NNE,14,0.0,0.0,100,0.00,,,0.00,WeatherDisplay:10.37,2013-02-24 05:46:00,
2013-02-24 00:47:00,40.4,40.4,29.82,NNE,14,0.0,0.0,100,0.00,,,0.00,WeatherDisplay:10.37,2013-02-24 05:47:00,
2013-02-24 00:51:00,40.3,40.3,29.82,NNE,14,0.0,0.0,100,0.00,,,0.00,WeatherDisplay:10.37,2013-02-24 05:51:00,
2013-02-24 00:52:00,40.1,40.1,29.82,NNE,14,0.0,0.0,100,0.00,,,0.00,WeatherDisplay:10.37,2013-02-24 05:52:00,
2013-02-24 00:57:00,40.3,40.3,29.81,NNE,14,0.0,0.0,100,0.00,,,0.00,WeatherDisplay:10.37,2013-02-24 05:57:00,
2013-02-24 00:58:00,40.0,40.0,29.81,NNE,14,0.0,0.0,100,0.00,,,0.00,WeatherDisplay:10.37,2013-02-24 05:58:00,
2013-02-24 01:02:00,40.0,40.0,29.81,NNE,14,0.0,0.0,100,0.00,,,0.00,WeatherDisplay:10.37,2013-02-24 06:02:00,
2013-02-24 01:03:00,40.3,40.3,29.81,NNE,14,0.0,0.0,100,0.00,,,0.00,WeatherDisplay:10.37,2013-02-24 06:03:00,
2013-02-24 01:07:00,40.0,40.0,29.82,NNE,14,0.0,0.0,100,0.00,,,0.00,WeatherDisplay:10.37,2013-02-24 06:07:00,
2013-02-24 01:08:00,40.0,40.0,29.82,NNE,14,0.0,0.0,100,0.00,,,0.00,WeatherDisplay:10.37,2013-02-24 06:08:00,
2013-02-24 01:12:00,40.2,40.2,29.83,NNE,14,0.0,0.0,100,0.00,,,0.00,WeatherDisplay:10.37,2013-02-24 06:12:00,
2013-02-24 01:13:00,40.3,40.3,29.83,NNE,14,0.0,0.0,100,0.00,,,0.00,WeatherDisplay:10.37,2013-02-24 06:13:00,
2013-02-24 01:14:00,40.1,40.1,29.83,NNE,14,0.0,0.0,100,0.00,,,0.00,WeatherDisplay:10.37,2013-02-24 06:14:00,
2013-02-24 01:17:00,40.0,40.0,29.82,NNE,14,0.0,0.0,100,0.00,,,0.00,WeatherDisplay:10.37,2013-02-24 06:17:00,
2013-02-24 01:18:00,40.0,40.0,29.82,NNE,14,0.0,0.0,100,0.00,,,0.00,WeatherDisplay:10.37,2013-02-24 06:18:00,
2013-02-24 01:19:00,39.7,39.7,29.82,NNE,14,0.0,0.0,100,0.00,,,0.00,WeatherDisplay:10.37,2013-02-24 06:19:00,
2013-02-24 01:22:00,40.3,40.3,29.83,NNE,14,0.0,0.0,100,0.00,,,0.00,WeatherDisplay:10.37,2013-02-24 06:22:00,
2013-02-24 01:23:00,39.9,39.9,29.82,NNE,14,0.0,0.0,100,0.00,,,0.00,WeatherDisplay:10.37,2013-02-24 06:23:00,
2013-02-24 01:24:00,40.1,40.1,29.83,NNE,14,0.0,0.0,100,0.00,,,0.00,WeatherDisplay:10.37,2013-02-24 06:24:00,
2013-02-24 01:27:00,40.1,40.1,29.82,NNE,14,0.0,0.0,100,0.00,,,0.00,WeatherDisplay:10.37,2013-02-24 06:27:00,
2013-02-24 01:28:00,40.4,40.4,29.82,NNE,14,0.0,0.0,100,0.00,,,0.00,WeatherDisplay:10.37,2013-02-24 06:28:00,
2013-02-24 01:29:00,40.3,40.3,29.82,NNE,14,0.0,0.0,100,0.00,,,0.00,WeatherDisplay:10.37,2013-02-24 06:29:00,
2013-02-24 01:32:00,40.2,40.2,29.82,NNE,14,0.0,0.0,100,0.00,,,0.00,WeatherDisplay:10.37,2013-02-24 06:32:00,
2013-02-24 01:33:00,40.6,40.6,29.82,NNE,14,0.0,0.0,100,0.00,,,0.00,WeatherDisplay:10.37,2013-02-24 06:33:00,
2013-02-24 01:34:00,40.5,40.5,29.82,NNE,14,0.0,0.0,100,0.00,,,0.00,WeatherDisplay:10.37,2013-02-24 06:34:00,
2013-02-24 01:37:00,40.8,40.8,29.82,NNE,14,0.0,0.0,100,0.00,,,0.00,WeatherDisplay:10.37,2013-02-24 06:37:00,
2013-02-24 01:38:00,40.8,40.8,29.82,NNE,14,0.0,0.0,100,0.00,,,0.00,WeatherDisplay:10.37,2013-02-24 06:38:00,
2013-02-24 01:39:00,40.3,40.3,29.82,NNE,14,0.0,0.0,100,0.00,,,0.00,WeatherDisplay:10.37,2013-02-24 06:39:00,
2013-02-24 01:42:00,41.1,41.1,29.83,NNE,14,0.0,0.0,100,0.00,,,0.00,WeatherDisplay:10.37,2013-02-24 06:42:00,
2013-02-24 01:43:00,40.7,40.7,29.83,NNE,14,0.0,0.0,100,0.00,,,0.00,WeatherDisplay:10.37,2013-02-24 06:43:00,
2013-02-24 01:44:00,40.7,40.7,29.83,NNE,14,0.0,0.0,100,0.00,,,0.00,WeatherDisplay:10.37,2013-02-24 06:44:00,
2013-02-24 01:47:00,41.0,41.0,29.83,NNE,14,0.0,0.0,100,0.00,,,0.00,WeatherDisplay:10.37,2013-02-24 06:47:00,
2013-02-24 01:48:00,41.1,41.1,29.83,NNE,14,0.0,0.0,100,0.00,,,0.00,WeatherDisplay:10.37,2013-02-24 06:48:00,
2013-02-24 01:49:00,41.1,41.1,29.83,NNE,14,0.0,0.0,100,0.00,,,0.00,WeatherDisplay:10.37,2013-02-24 06:49:00,
2013-02-24 01:52:00,40.8,40.8,29.83,NNE,14,0.0,0.0,100,0.00,,,0.00,WeatherDisplay:10.37,2013-02-24 06:52:00,
2013-02-24 01:53:00,41.2,41.2,29.83,NNE,14,0.0,0.0,100,0.00,,,0.00,WeatherDisplay:10.37,2013-02-24 06:53:00,
2013-02-24 01:54:00,41.1,41.1,29.83,NNE,14,0.0,0.0,100,0.00,,,0.00,WeatherDisplay:10.37,2013-02-24 06:54:00,
2013-02-24 01:57:00,40.9,40.9,29.83,NNE,14,0.0,0.0,100,0.00,,,0.00,WeatherDisplay:10.37,2013-02-24 06:57:00,
2013-02-24 01:58:00,41.2,41.2,29.83,NNE,14,0.0,0.0,100,0.00,,,0.00,WeatherDisplay:10.37,2013-02-24 06:58:00,
2013-02-24 01:59:00,41.0,41.0,29.83,NNE,14,0.0,0.0,100,0.00,,,0.00,WeatherDisplay:10.37,2013-02-24 06:59:00,
2013-02-24 02:03:00,41.0,41.0,29.83,NNE,14,0.0,0.0,100,0.00,,,0.00,WeatherDisplay:10.37,2013-02-24 07:03:00,
2013-02-24 02:04:00,41.3,41.3,29.83,NNE,14,0.0,0.0,100,0.00,,,0.00,WeatherDisplay:10.37,2013-02-24 07:04:00,
2013-02-24 02:08:00,41.1,41.1,29.83,NNE,14,0.0,0.0,100,0.00,,,0.00,WeatherDisplay:10.37,2013-02-24 07:08:00,
2013-02-24 02:09:00,41.3,41.3,29.83,NNE,14,0.0,0.0,100,0.00,,,0.00,WeatherDisplay:10.37,2013-02-24 07:09:00,
2013-02-24 02:13:00,41.2,41.2,29.83,NNE,14,0.0,0.0,100,0.00,,,0.00,WeatherDisplay:10.37,2013-02-24 07:13:00,
2013-02-24 02:14:00,40.9,40.9,29.82,NNE,14,0.0,0.0,100,0.00,,,0.00,WeatherDisplay:10.37,2013-02-24 07:14:00,
2013-02-24 02:15:00,41.1,41.1,29.82,NNE,14,0.0,0.0,100,0.00,,,0.00,WeatherDisplay:10.37,2013-02-24 07:15:00,
2013-02-24 02:19:00,41.2,41.2,29.82,NNE,14,0.0,0.0,100,0.00,,,0.00,WeatherDisplay:10.37,2013-02-24 07:19:00,
2013-02-24 02:20:00,41.2,41.2,29.82,NNE,14,0.0,0.0,100,0.00,,,0.00,WeatherDisplay:10.37,2013-02-24 07:20:00,
2013-02-24 02:24:00,41.3,41.3,29.82,NNE,14,0.0,0.0,100,0.00,,,0.00,WeatherDisplay:10.37,2013-02-24 07:24:00,
2013-02-24 02:25:00,41.3,41.3,29.82,NNE,14,0.0,0.0,100,0.00,,,0.00,WeatherDisplay:10.37,2013-02-24 07:25:00,
2013-02-24 02:29:00,41.5,41.5,29.83,NNE,14,0.0,0.0,100,0.00,,,0.00,WeatherDisplay:10.37,2013-02-24 07:29:00,
2013-02-24 02:30:00,41.2,41.2,29.82,NNE,14,0.0,0.0,100,0.00,,,0.00,WeatherDisplay:10.37,2013-02-24 07:30:00,
2013-02-24 02:34:00,40.6,40.6,29.82,NNE,14,0.0,0.0,100,0.00,,,0.00,WeatherDisplay:10.37,2013-02-24 07:34:00,
2013-02-24 02:35:00,40.9,40.9,29.82,NNE,14,0.0,0.0,100,0.00,,,0.00,WeatherDisplay:10.37,2013-02-24 07:35:00,
2013-02-24 02:36:00,40.6,40.6,29.82,NNE,14,0.0,0.0,100,0.00,,,0.00,WeatherDisplay:10.37,2013-02-24 07:36:00,
2013-02-24 02:39:00,40.5,40.5,29.81,NNE,14,0.0,0.0,100,0.00,,,0.00,WeatherDisplay:10.37,2013-02-24 07:39:00,
2013-02-24 02:40:00,40.5,40.5,29.81,NNE,14,0.0,0.0,100,0.00,,,0.00,WeatherDisplay:10.37,2013-02-24 07:40:00,
2013-02-24 02:41:00,40.8,40.8,29.81,NNE,14,0.0,0.0,100,0.00,,,0.00,WeatherDisplay:10.37,2013-02-24 07:41:00,
2013-02-24 02:44:00,40.7,40.7,29.81,NNE,14,0.0,0.0,100,0.00,,,0.00,WeatherDisplay:10.37,2013-02-24 07:44:00,
2013-02-24 02:45:00,40.9,40.9,29.81,NNE,14,0.0,0.0,100,0.00,,,0.00,WeatherDisplay:10.37,2013-02-24 07:45:00,
2013-02-24 02:46:00,40.9,40.9,29.81,NNE,14,0.0,0.0,100,0.00,,,0.00,WeatherDisplay:10.37,2013-02-24 07:46:00,
2013-02-24 02:49:00,41.5,41.5,29.81,NNE,14,0.0,0.0,100,0.00,,,0.00,WeatherDisplay:10.37,2013-02-24 07:49:00,
2013-02-24 02:50:00,41.1,41.1,29.81,NNE,14,0.0,0.0,100,0.00,,,0.00,WeatherDisplay:10.37,2013-02-24 07:50:00,
2013-02-24 02:51:00,41.1,41.1,29.81,NNE,14,0.0,0.0,100,0.00,,,0.00,WeatherDisplay:10.37,2013-02-24 07:51:00,
2013-02-24 02:52:00,41.1,41.1,29.81,NNE,14,0.0,0.0,100,0.00,,,0.00,WeatherDisplay:10.37,2013-02-24 07:52:00,
2013-02-24 02:54:00,40.9,40.9,29.81,NNE,14,0.0,0.0,100,0.00,,,0.00,WeatherDisplay:10.37,2013-02-24 07:54:00,
2013-02-24 02:55:00,41.2,41.2,29.81,NNE,14,0.0,0.0,100,0.00,,,0.00,WeatherDisplay:10.37,2013-02-24 07:55:00,
2013-02-24 02:56:00,40.9,40.9,29.81,NNE,14,0.0,0.0,100,0.00,,,0.00,WeatherDisplay:10.37,2013-02-24 07:56:00,
2013-02-24 02:57:00,41.1,41.1,29.81,NNE,14,0.0,0.0,100,0.00,,,0.00,WeatherDisplay:10.37,2013-02-24 07:57:00,
2013-02-24 02:59:00,41.1,41.1,29.81,NNE,14,0.0,0.0,100,0.00,,,0.00,WeatherDisplay:10.37,2013-02-24 07:59:00,
2013-02-24 03:00:00,41.1,41.1,29.81,NNE,14,0.0,0.0,100,0.00,,,0.00,WeatherDisplay:10.37,2013-02-24 08:00:00,
2013-02-24 03:02:00,41.3,41.3,29.81,NNE,14,0.0,0.0,100,0.00,,,0.00,WeatherDisplay:10.37,2013-02-24 08:02:00,
2013-02-24 03:04:00,41.0,41.0,29.81,NNE,14,0.0,0.0,100,0.00,,,0.00,WeatherDisplay:10.37,2013-02-24 08:04:00,
2013-02-24 03:05:00,41.2,41.2,29.81,NNE,14,0.0,0.0,100,0.00,,,0.00,WeatherDisplay:10.37,2013-02-24 08:05:00,
2013-02-24 03:07:00,41.4,41.4,29.81,NNE,14,0.0,0.0,100,0.00,,,0.00,WeatherDisplay:10.37,2013-02-24 08:07:00,
2013-02-24 03:09:00,41.7,41.7,29.81,NNE,14,0.0,0.0,100,0.00,,,0.00,WeatherDisplay:10.37,2013-02-24 08:09:00,
2013-02-24 03:11:00,41.4,41.4,29.81,NNE,14,0.0,0.0,100,0.00,,,0.00,WeatherDisplay:10.37,2013-02-24 08:11:00,
2013-02-24 03:12:00,41.6,41.6,29.81,NNE,14,0.0,0.0,100,0.00,,,0.00,WeatherDisplay:10.37,2013-02-24 08:12:00,
2013-02-24 03:13:00,41.5,41.5,29.81,NNE,14,0.0,0.0,100,0.00,,,0.00,WeatherDisplay:10.37,2013-02-24 08:13:00,
2013-02-24 03:14:00,41.4,41.4,29.81,NNE,14,0.0,0.0,100,0.00,,,0.00,WeatherDisplay:10.37,2013-02-24 08:14:00,
2013-02-24 03:16:00,41.5,41.5,29.81,NNE,14,0.0,0.0,100,0.00,,,0.00,WeatherDisplay:10.37,2013-02-24 08:16:00,
2013-02-24 03:17:00,41.3,41.3,29.81,NNE,14,0.0,0.0,100,0.00,,,0.00,WeatherDisplay:10.37,2013-02-24 08:17:00,
2013-02-24 03:18:00,41.9,41.9,29.81,NNE,14,0.0,0.0,100,0.00,,,0.00,WeatherDisplay:10.37,2013-02-24 08:18:00,
2013-02-24 03:19:00,41.7,41.7,29.81,NNE,14,0.0,0.0,100,0.00,,,0.00,WeatherDisplay:10.37,2013-02-24 08:19:00,
2013-02-24 03:21:00,41.5,41.5,29.81,NNE,14,0.0,0.0,100,0.00,,,0.00,WeatherDisplay:10.37,2013-02-24 08:21:00,
2013-02-24 03:22:00,41.9,41.9,29.81,NNE,14,0.0,0.0,100,0.00,,,0.00,WeatherDisplay:10.37,2013-02-24 08:22:00,
2013-02-24 03:23:00,41.8,41.8,29.81,NNE,14,0.0,0.0,100,0.00,,,0.00,WeatherDisplay:10.37,2013-02-24 08:23:00,
2013-02-24 03:24:00,41.9,41.9,29.81,NNE,14,0.0,0.0,100,0.00,,,0.00,WeatherDisplay:10.37,2013-02-24 08:24:00,
2013-02-24 03:26:00,42.1,42.1,29.82,NNE,14,0.0,0.0,100,0.00,,,0.00,WeatherDisplay:10.37,2013-02-24 08:26:00,
2013-02-24 03:28:00,42.2,42.2,29.82,NNE,14,0.0,0.0,100,0.00,,,0.00,WeatherDisplay:10.37,2013-02-24 08:28:00,
2013-02-24 03:30:00,42.1,42.1,29.82,NNE,14,0.0,0.0,100,0.00,,,0.00,WeatherDisplay:10.37,2013-02-24 08:30:00,
2013-02-24 03:31:00,42.3,42.3,29.82,NNE,14,0.0,0.0,100,0.00,,,0.00,WeatherDisplay:10.37,2013-02-24 08:31:00,
2013-02-24 03:33:00,42.3,42.0,29.82,NNE,14,0.0,0.0,99,0.00,,,0.00,WeatherDisplay:10.37,2013-02-24 08:33:00,
2013-02-24 03:34:00,42.1,41.8,29.82,NNE,14,0.0,0.0,99,0.00,CLR,,0.00,WeatherDisplay:10.37,2013-02-24 08:34:00,
2013-02-24 03:35:00,42.6,42.1,29.82,NNE,14,0.0,0.0,98,0.00,CLR,,0.00,WeatherDisplay:10.37,2013-02-24 08:35:00,
2013-02-24 03:36:00,42.5,42.0,29.82,NNE,14,0.0,0.0,98,0.00,CLR,,0.00,WeatherDisplay:10.37,2013-02-24 08:36:00,
2013-02-24 03:38:00,42.3,41.5,29.82,NNE,14,0.0,0.0,97,0.00,CLR,,0.00,WeatherDisplay:10.37,2013-02-24 08:38:00,
2013-02-24 03:39:00,42.3,41.5,29.82,NNE,14,0.0,0.0,97,0.00,CLR,,0.00,WeatherDisplay:10.37,2013-02-24 08:39:00,
2013-02-24 03:40:00,42.5,41.7,29.82,NNE,14,0.0,0.0,97,0.00,CLR,,0.00,WeatherDisplay:10.37,2013-02-24 08:40:00,
2013-02-24 03:41:00,42.2,41.4,29.82,NNE,14,0.0,0.0,97,0.00,CLR,,0.00,WeatherDisplay:10.37,2013-02-24 08:41:00,
2013-02-24 03:43:00,42.7,41.6,29.81,NNE,14,0.0,0.0,96,0.00,CLR,,0.00,WeatherDisplay:10.37,2013-02-24 08:43:00,
2013-02-24 03:44:00,42.6,41.3,29.81,NNE,14,0.0,0.0,95,0.00,CLR,,0.00,WeatherDisplay:10.37,2013-02-24 08:44:00,
2013-02-24 03:45:00,42.7,41.1,29.81,NNE,14,0.0,0.0,94,0.00,CLR,,0.00,WeatherDisplay:10.37,2013-02-24 08:45:00,
2013-02-24 03:47:00,42.9,41.6,29.81,NNE,14,0.0,0.0,95,0.00,CLR,,0.00,WeatherDisplay:10.37,2013-02-24 08:47:00,
2013-02-24 03:48:00,42.8,40.9,29.81,NNE,14,0.0,0.0,93,0.00,CLR,,0.00,WeatherDisplay:10.37,2013-02-24 08:48:00,
2013-02-24 03:49:00,42.6,40.4,29.81,NNE,14,0.0,0.0,92,0.00,CLR,,0.00,WeatherDisplay:10.37,2013-02-24 08:49:00,
2013-02-24 03:50:00,43.1,40.7,29.81,NNW,335,2.6,5.8,91,0.00,CLR,,0.00,WeatherDisplay:10.37,2013-02-24 08:50:00,
2013-02-24 03:52:00,43.0,40.6,29.81,WNW,289,0.2,5.8,91,0.00,CLR,,0.00,WeatherDisplay:10.37,2013-02-24 08:52:00,
2013-02-24 03:53:00,43.2,40.2,29.81,NW,311,0.0,5.8,89,0.00,CLR,,0.00,WeatherDisplay:10.37,2013-02-24 08:53:00,
2013-02-24 03:54:00,43.4,40.4,29.81,NW,311,0.0,0.0,89,0.00,CLR,,0.00,WeatherDisplay:10.37,2013-02-24 08:54:00,
2013-02-24 03:55:00,43.4,40.7,29.81,NW,311,0.0,0.0,90,0.00,CLR,,0.00,WeatherDisplay:10.37,2013-02-24 08:55:00,
2013-02-24 03:57:00,43.3,40.6,29.81,NW,311,0.0,0.0,90,0.00,CLR,,0.00,WeatherDisplay:10.37,2013-02-24 08:57:00,
2013-02-24 03:59:00,43.3,40.6,29.81,NW,311,0.0,0.0,90,0.00,CLR,,0.00,WeatherDisplay:10.37,2013-02-24 08:59:00,
2013-02-24 04:00:00,43.3,40.6,29.81,NW,311,0.0,0.0,90,0.00,CLR,,0.00,WeatherDisplay:10.37,2013-02-24 09:00:00,
2013-02-24 04:02:00,43.4,40.4,29.81,NW,311,0.0,0.0,89,0.00,CLR,,0.00,WeatherDisplay:10.37,2013-02-24 09:02:00,
2013-02-24 04:04:00,43.4,40.7,29.81,NW,311,0.0,0.0,90,0.00,CLR,,0.00,WeatherDisplay:10.37,2013-02-24 09:04:00,
2013-02-24 04:06:00,43.5,40.2,29.81,NW,311,0.0,0.0,88,0.00,CLR,,0.00,WeatherDisplay:10.37,2013-02-24 09:06:00,
2013-02-24 04:07:00,43.6,39.4,29.81,NW,311,0.0,0.0,85,0.00,CLR,,0.00,WeatherDisplay:10.37,2013-02-24 09:07:00,
2013-02-24 04:09:00,43.7,39.2,29.81,NW,311,0.0,0.0,84,0.00,CLR,,0.00,WeatherDisplay:10.37,2013-02-24 09:09:00,
2013-02-24 04:10:00,43.7,39.2,29.81,NW,311,0.0,0.0,84,0.00,CLR,,0.00,WeatherDisplay:10.37,2013-02-24 09:10:00,
2013-02-24 04:11:00,43.7,39.2,29.81,NW,311,0.0,0.0,84,0.00,CLR,,0.00,WeatherDisplay:10.37,2013-02-24 09:11:00,
2013-02-24 04:12:00,43.7,39.2,29.81,NW,311,0.0,0.0,84,0.00,CLR,,0.00,WeatherDisplay:10.37,2013-02-24 09:12:00,
2013-02-24 04:14:00,43.5,39.0,29.82,NW,311,0.0,0.0,84,0.00,CLR,,0.00,WeatherDisplay:10.37,2013-02-24 09:14:00,
2013-02-24 04:15:00,43.6,39.1,29.82,NW,326,2.9,6.9,84,0.00,CLR,,0.00,WeatherDisplay:10.37,2013-02-24 09:15:00,
2013-02-24 04:16:00,43.7,37.3,29.82,NNW,347,2.0,6.9,78,0.00,CLR,,0.00,WeatherDisplay:10.37,2013-02-24 09:16:00,
2013-02-24 04:17:00,44.0,36.9,29.82,NNW,332,0.4,6.9,76,0.00,CLR,,0.00,WeatherDisplay:10.37,2013-02-24 09:17:00,
2013-02-24 04:19:00,43.5,36.4,29.82,NNW,332,0.0,0.0,76,0.00,CLR,,0.00,WeatherDisplay:10.37,2013-02-24 09:19:00,
2013-02-24 04:21:00,43.8,36.4,29.82,NNW,332,0.0,0.0,75,0.00,CLR,,0.00,WeatherDisplay:10.37,2013-02-24 09:21:00,
2013-02-24 04:22:00,43.9,36.1,29.82,NNW,332,0.0,0.0,74,0.00,CLR,,0.00,WeatherDisplay:10.37,2013-02-24 09:22:00,
2013-02-24 04:24:00,43.7,36.6,29.82,NNW,332,0.0,0.0,76,0.00,CLR,,0.00,WeatherDisplay:10.37,2013-02-24 09:24:00,
2013-02-24 04:26:00,43.6,37.2,29.83,NNW,332,0.0,0.0,78,0.00,CLR,,0.00,WeatherDisplay:10.37,2013-02-24 09:26:00,
2013-02-24 04:27:00,43.7,36.6,29.83,NNW,332,0.0,0.0,76,0.00,CLR,,0.00,WeatherDisplay:10.37,2013-02-24 09:27:00,
2013-02-24 04:29:00,43.7,36.6,29.83,NNW,332,0.0,0.0,76,0.00,CLR,,0.00,WeatherDisplay:10.37,2013-02-24 09:29:00,
2013-02-24 04:31:00,43.6,36.2,29.83,NNW,332,0.0,0.0,75,0.00,CLR,,0.00,WeatherDisplay:10.37,2013-02-24 09:31:00,
2013-02-24 04:32:00,44.0,35.2,29.83,NNW,332,0.0,0.0,71,0.00,CLR,,0.00,WeatherDisplay:10.37,2013-02-24 09:32:00,
2013-02-24 04:34:00,43.9,35.5,29.83,NNW,332,0.0,0.0,72,0.00,CLR,,0.00,WeatherDisplay:10.37,2013-02-24 09:34:00,
2013-02-24 04:36:00,43.6,34.8,29.83,NNW,332,0.0,0.0,71,0.00,CLR,,0.00,WeatherDisplay:10.37,2013-02-24 09:36:00,
2013-02-24 04:37:00,43.8,34.3,29.83,NNW,332,0.0,0.0,69,0.00,CLR,,0.00,WeatherDisplay:10.37,2013-02-24 09:37:00,
2013-02-24 04:38:00,43.9,34.4,29.84,NNW,332,0.0,0.0,69,0.00,CLR,,0.00,WeatherDisplay:10.37,2013-02-24 09:38:00,
2013-02-24 04:39:00,44.0,31.8,29.83,NW,311,0.5,4.6,62,0.00,CLR,,0.00,WeatherDisplay:10.37,2013-02-24 09:39:00,
2013-02-24 04:41:00,44.1,30.3,29.83,NW,311,0.0,0.0,58,0.00,CLR,,0.00,WeatherDisplay:10.37,2013-02-24 09:41:00,
2013-02-24 04:42:00,44.4,28.8,29.83,NW,320,6.1,10.4,54,0.00,CLR,,0.00,WeatherDisplay:10.37,2013-02-24 09:42:00,
2013-02-24 04:43:00,44.8,28.7,29.84,WNW,299,4.0,10.4,53,0.00,CLR,,0.00,WeatherDisplay:10.37,2013-02-24 09:43:00,
2013-02-24 04:44:00,44.6,29.9,29.84,WNW,292,3.2,8.1,56,0.00,CLR,,0.00,WeatherDisplay:10.37,2013-02-24 09:44:00,
2013-02-24 04:46:00,44.4,29.7,29.84,NW,326,1.9,9.8,56,0.00,CLR,,0.00,WeatherDisplay:10.37,2013-02-24 09:46:00,
2013-02-24 04:47:00,44.4,28.8,29.83,NW,323,5.9,10.4,54,0.00,CLR,,0.00,WeatherDisplay:10.37,2013-02-24 09:47:00,
2013-02-24 04:48:00,44.1,27.6,29.83,NW,323,1.9,6.9,52,0.00,CLR,,0.00,WeatherDisplay:10.37,2013-02-24 09:48:00,
2013-02-24 04:49:00,44.1,26.6,29.83,WNW,295,3.9,6.9,50,0.00,CLR,,0.00,WeatherDisplay:10.37,2013-02-24 09:49:00,
2013-02-24 04:51:00,44.0,26.5,29.83,NW,304,2.8,8.1,50,0.00,CLR,,0.00,WeatherDisplay:10.37,2013-02-24 09:51:00,
2013-02-24 04:52:00,44.0,26.0,29.84,NNW,333,3.6,8.1,49,0.00,CLR,,0.00,WeatherDisplay:10.37,2013-02-24 09:52:00,
2013-02-24 04:54:00,44.3,23.7,29.83,North,353,6.6,11.5,44,0.00,CLR,,0.00,WeatherDisplay:10.37,2013-02-24 09:54:00,
2013-02-24 04:56:00,44.9,22.0,29.84,NW,309,8.9,11.5,40,0.00,CLR,,0.00,WeatherDisplay:10.37,2013-02-24 09:56:00,
2013-02-24 04:57:00,45.1,22.2,29.83,NW,316,6.3,15.0,40,0.00,CLR,,0.00,WeatherDisplay:10.37,2013-02-24 09:57:00,
2013-02-24 04:59:00,44.9,21.4,29.84,NNW,335,6.2,10.4,39,0.00,CLR,,0.00,WeatherDisplay:10.37,2013-02-24 09:59:00,
2013-02-24 05:00:00,44.9,21.4,29.84,NW,316,4.5,8.1,39,0.00,CLR,,0.00,WeatherDisplay:10.37,2013-02-24 10:00:00,
2013-02-24 05:01:00,45.3,21.2,29.84,WNW,302,7.3,12.7,38,0.00,CLR,,0.00,WeatherDisplay:10.37,2013-02-24 10:01:00,
2013-02-24 05:02:00,45.2,21.1,29.84,WNW,301,6.5,12.7,38,0.00,CLR,,0.00,WeatherDisplay:10.37,2013-02-24 10:02:00,
2013-02-24 05:04:00,45.3,20.5,29.84,NW,305,5.9,9.2,37,0.00,CLR,,0.00,WeatherDisplay:10.37,2013-02-24 10:04:00,
2013-02-24 05:05:00,45.2,20.4,29.84,NW,304,7.0,11.5,37,0.00,CLR,,0.00,WeatherDisplay:10.37,2013-02-24 10:05:00,
2013-02-24 05:06:00,45.4,20.6,29.84,WNW,288,7.3,10.4,37,0.00,CLR,,0.00,WeatherDisplay:10.37,2013-02-24 10:06:00,
2013-02-24 05:07:00,45.2,20.4,29.84,WNW,288,5.9,9.5,37,0.00,CLR,,0.00,WeatherDisplay:10.37,2013-02-24 10:07:00,
2013-02-24 05:10:00,45.2,19.8,29.84,WNW,298,6.7,12.4,36,0.00,CLR,,0.00,WeatherDisplay:10.37,2013-02-24 10:10:00,
2013-02-24 05:12:00,45.4,19.3,29.84,WNW,291,7.9,13.8,35,0.00,CLR,,0.00,WeatherDisplay:10.37,2013-02-24 10:12:00,
2013-02-24 05:13:00,45.4,19.3,29.84,West,260,4.0,10.7,35,0.00,CLR,,0.00,WeatherDisplay:10.37,2013-02-24 10:13:00,
2013-02-24 05:15:00,45.7,18.9,29.84,SW,215,6.0,10.4,34,0.00,CLR,,0.00,WeatherDisplay:10.37,2013-02-24 10:15:00,
2013-02-24 05:17:00,45.3,18.5,29.84,NW,313,5.8,8.1,34,0.00,CLR,,0.00,WeatherDisplay:10.37,2013-02-24 10:17:00,
2013-02-24 05:18:00,45.2,18.5,29.84,WNW,301,6.6,8.1,34,0.00,CLR,,0.00,WeatherDisplay:10.37,2013-02-24 10:18:00,
2013-02-24 05:20:00,45.2,19.1,29.85,WSW,246,5.9,9.2,35,0.00,CLR,,0.00,WeatherDisplay:10.37,2013-02-24 10:20:00,
2013-02-24 05:21:00,45.1,18.4,29.85,WNW,289,4.9,9.2,34,0.00,CLR,,0.00,WeatherDisplay:10.37,2013-02-24 10:21:00,
2013-02-24 05:22:00,45.1,19.0,29.85,NW,313,6.1,9.2,35,0.00,CLR,,0.00,WeatherDisplay:10.37,2013-02-24 10:22:00,
2013-02-24 05:23:00,45.2,19.1,29.85,NW,320,5.3,10.4,35,0.00,CLR,,0.00,WeatherDisplay:10.37,2013-02-24 10:23:00,
2013-02-24 05:25:00,45.3,18.5,29.85,West,278,6.6,9.2,34,0.00,CLR,,0.00,WeatherDisplay:10.37,2013-02-24 10:25:00,
2013-02-24 05:26:00,44.9,18.2,29.85,WNW,299,6.6,9.2,34,0.00,CLR,,0.00,WeatherDisplay:10.37,2013-02-24 10:26:00,
2013-02-24 05:27:00,45.1,18.4,29.85,North,8,6.9,9.2,34,0.00,CLR,,0.00,WeatherDisplay:10.37,2013-02-24 10:27:00,
2013-02-24 05:28:00,45.1,19.0,29.85,NW,323,4.5,9.2,35,0.00,CLR,,0.00,WeatherDisplay:10.37,2013-02-24 10:28:00,
2013-02-24 05:31:00,44.8,19.4,29.85,NNW,337,5.1,9.2,36,0.00,CLR,,0.00,WeatherDisplay:10.37,2013-02-24 10:31:00,
2013-02-24 05:32:00,44.6,19.3,29.85,NNW,337,3.4,5.8,36,0.00,CLR,,0.00,WeatherDisplay:10.37,2013-02-24 10:32:00,
2013-02-24 05:33:00,44.6,19.3,29.85,NW,305,4.5,5.8,36,0.00,CLR,,0.00,WeatherDisplay:10.37,2013-02-24 10:33:00,
2013-02-24 05:36:00,44.5,19.2,29.85,WNW,295,5.1,8.1,36,0.00,CLR,,0.00,WeatherDisplay:10.37,2013-02-24 10:36:00,
2013-02-24 05:37:00,44.3,19.6,29.85,NW,305,3.2,8.1,37,0.00,CLR,,0.00,WeatherDisplay:10.37,2013-02-24 10:37:00,
2013-02-24 05:38:00,44.1,19.5,29.85,NW,319,3.8,6.9,37,0.00,CLR,,0.00,WeatherDisplay:10.37,2013-02-24 10:38:00,
2013-02-24 05:39:00,44.1,19.5,29.85,NW,320,6.2,9.2,37,0.00,CLR,,0.00,WeatherDisplay:10.37,2013-02-24 10:39:00,
2013-02-24 05:41:00,43.9,19.3,29.85,WNW,299,5.5,8.1,37,0.00,CLR,,0.00,WeatherDisplay:10.37,2013-02-24 10:41:00,
2013-02-24 05:42:00,44.0,20.0,29.85,West,270,5.4,7.2,38,0.00,CLR,,0.00,WeatherDisplay:10.37,2013-02-24 10:42:00,
2013-02-24 05:43:00,44.2,19.5,29.85,NW,315,7.0,9.2,37,0.00,CLR,,0.00,WeatherDisplay:10.37,2013-02-24 10:43:00,
2013-02-24 05:44:00,44.2,18.9,29.85,NNW,335,8.6,10.4,36,0.00,CLR,,0.00,WeatherDisplay:10.37,2013-02-24 10:44:00,
2013-02-24 05:46:00,43.7,17.8,29.86,NNW,328,7.6,9.2,35,0.00,CLR,,0.00,WeatherDisplay:10.37,2013-02-24 10:46:00,
2013-02-24 05:47:00,44.1,18.2,29.86,NW,322,6.1,12.7,35,0.00,CLR,,0.00,WeatherDisplay:10.37,2013-02-24 10:47:00,
2013-02-24 05:48:00,44.1,17.5,29.86,NW,322,6.1,10.4,34,0.00,CLR,,0.00,WeatherDisplay:10.37,2013-02-24 10:48:00,
2013-02-24 05:49:00,44.2,17.6,29.86,WNW,294,7.4,10.8,34,0.00,CLR,,0.00,WeatherDisplay:10.37,2013-02-24 10:49:00,
2013-02-24 05:51:00,44.1,16.8,29.86,NNW,330,7.3,11.5,33,0.00,CLR,,0.00,WeatherDisplay:10.37,2013-02-24 10:51:00,
2013-02-24 05:52:00,44.2,16.9,29.86,NW,311,9.3,11.5,33,0.00,CLR,,0.00,WeatherDisplay:10.37,2013-02-24 10:52:00,
2013-02-24 05:53:00,44.3,17.0,29.86,NNW,333,7.2,12.7,33,0.00,CLR,,0.00,WeatherDisplay:10.37,2013-02-24 10:53:00,
2013-02-24 05:54:00,44.7,16.6,29.86,NNW,330,8.1,12.7,32,0.00,CLR,,0.00,WeatherDisplay:10.37,2013-02-24 10:54:00,
2013-02-24 05:56:00,44.4,17.1,29.86,WNW,298,8.3,12.7,33,0.00,CLR,,0.00,WeatherDisplay:10.37,2013-02-24 10:56:00,
2013-02-24 05:58:00,44.7,16.6,29.86,NW,306,8.0,11.3,32,0.00,CLR,,0.00,WeatherDisplay:10.37,2013-02-24 10:58:00,
2013-02-24 05:59:00,44.4,17.1,29.86,NNW,339,7.3,11.5,33,0.00,CLR,,0.00,WeatherDisplay:10.37,2013-02-24 10:59:00,
2013-02-24 06:01:00,44.1,16.8,29.86,NW,312,7.9,11.5,33,0.00,CLR,,0.00,WeatherDisplay:10.37,2013-02-24 11:01:00,
2013-02-24 06:03:00,44.2,16.2,29.87,WNW,288,8.3,11.5,32,0.00,CLR,,0.00,WeatherDisplay:10.37,2013-02-24 11:03:00,
2013-02-24 06:04:00,44.6,16.5,29.87,NW,304,6.6,13.8,32,0.00,CLR,,0.00,WeatherDisplay:10.37,2013-02-24 11:04:00,
2013-02-24 06:06:00,44.2,16.9,29.87,NW,308,7.5,12.7,33,0.00,CLR,,0.00,WeatherDisplay:10.37,2013-02-24 11:06:00,
2013-02-24 06:08:00,44.4,16.3,29.87,NNW,333,9.8,13.8,32,0.00,CLR,,0.00,WeatherDisplay:10.37,2013-02-24 11:08:00,
2013-02-24 06:09:00,44.5,17.1,29.87,West,268,7.4,12.1,33,0.00,CLR,,0.00,WeatherDisplay:10.37,2013-02-24 11:09:00,
2013-02-24 06:11:00,44.3,16.3,29.87,WNW,292,8.3,12.7,32,0.00,CLR,,0.00,WeatherDisplay:10.37,2013-02-24 11:11:00,
2013-02-24 06:13:00,44.4,16.3,29.87,WNW,294,10.0,15.0,32,0.00,CLR,,0.00,WeatherDisplay:10.37,2013-02-24 11:13:00,
2013-02-24 06:14:00,44.3,16.3,29.87,NW,315,8.5,15.0,32,0.00,CLR,,0.00,WeatherDisplay:10.37,2013-02-24 11:14:00,
2013-02-24 06:16:00,44.0,16.7,29.87,NNW,339,7.7,12.0,33,0.00,CLR,,0.00,WeatherDisplay:10.37,2013-02-24 11:16:00,
2013-02-24 06:18:00,43.9,16.6,29.86,WNW,292,8.7,18.4,33,0.00,CLR,,0.00,WeatherDisplay:10.37,2013-02-24 11:18:00,
2013-02-24 06:19:00,43.9,16.6,29.86,NW,316,10.5,12.7,33,0.00,CLR,,0.00,WeatherDisplay:10.37,2013-02-24 11:19:00,
2013-02-24 06:21:00,44.2,16.9,29.87,WNW,294,9.1,15.0,33,0.00,CLR,,0.00,WeatherDisplay:10.37,2013-02-24 11:21:00,
2013-02-24 06:23:00,44.1,16.8,29.87,WNW,296,9.8,12.7,33,0.00,CLR,,0.00,WeatherDisplay:10.37,2013-02-24 11:23:00,
2013-02-24 06:25:00,44.0,16.7,29.87,NNW,328,11.8,18.4,33,0.00,CLR,,0.00,WeatherDisplay:10.37,2013-02-24 11:25:00,
2013-02-24 06:27:00,43.7,17.1,29.87,NW,326,11.8,15.0,34,0.00,CLR,,0.00,WeatherDisplay:10.37,2013-02-24 11:27:00,
2013-02-24 06:28:00,43.7,17.1,29.87,NW,319,10.1,17.3,34,0.00,CLR,,0.00,WeatherDisplay:10.37,2013-02-24 11:28:00,
2013-02-24 06:29:00,43.7,17.1,29.87,WNW,282,9.5,13.8,34,0.00,CLR,,0.00,WeatherDisplay:10.37,2013-02-24 11:29:00,
2013-02-24 06:30:00,43.7,17.1,29.87,NW,323,10.6,17.3,34,0.00,CLR,,0.00,WeatherDisplay:10.37,2013-02-24 11:30:00,
2013-02-24 06:32:00,43.9,16.6,29.88,West,260,11.2,17.3,33,0.00,CLR,,0.00,WeatherDisplay:10.37,2013-02-24 11:32:00,
2013-02-24 06:33:00,43.7,16.4,29.88,WNW,287,13.0,19.6,33,0.00,CLR,,0.00,WeatherDisplay:10.37,2013-02-24 11:33:00,
2013-02-24 06:34:00,43.7,16.4,29.88,WNW,285,11.4,17.3,33,0.00,CLR,,0.00,WeatherDisplay:10.37,2013-02-24 11:34:00,
2013-02-24 06:35:00,44.0,16.7,29.88,WNW,284,10.9,17.3,33,0.00,CLR,,0.00,WeatherDisplay:10.37,2013-02-24 11:35:00,
2013-02-24 06:38:00,43.8,16.5,29.88,WNW,294,10.1,16.1,33,0.00,CLR,,0.00,WeatherDisplay:10.37,2013-02-24 11:38:00,
2013-02-24 06:39:00,44.1,16.1,29.88,West,272,9.5,11.5,32,0.00,CLR,,0.00,WeatherDisplay:10.37,2013-02-24 11:39:00,
2013-02-24 06:40:00,44.1,16.8,29.88,WNW,284,9.8,15.0,33,0.00,CLR,,0.00,WeatherDisplay:10.37,2013-02-24 11:40:00,
2013-02-24 06:43:00,43.8,16.5,29.88,NNW,330,7.8,12.7,33,0.00,CLR,,0.00,WeatherDisplay:10.37,2013-02-24 11:43:00,
2013-02-24 06:44:00,43.6,17.0,29.88,NW,306,7.6,11.5,34,0.00,CLR,,0.00,WeatherDisplay:10.37,2013-02-24 11:44:00,
2013-02-24 06:45:00,44.0,17.4,29.88,NW,304,7.2,10.4,34,0.00,CLR,,0.00,WeatherDisplay:10.37,2013-02-24 11:45:00,
2013-02-24 06:48:00,43.8,17.2,29.88,NW,309,7.9,11.5,34,0.00,CLR,,0.00,WeatherDisplay:10.37,2013-02-24 11:48:00,
2013-02-24 06:49:00,43.5,16.9,29.88,North,0,5.3,10.4,34,0.00,CLR,,0.00,WeatherDisplay:10.37,2013-02-24 11:49:00,
2013-02-24 06:50:00,43.4,16.9,29.88,WNW,291,6.0,9.2,34,0.00,CLR,,0.00,WeatherDisplay:10.37,2013-02-24 11:50:00,
2013-02-24 06:53:00,43.3,17.4,29.89,NNW,330,5.4,10.4,35,0.00,CLR,,0.00,WeatherDisplay:10.37,2013-02-24 11:53:00,
2013-02-24 06:54:00,43.2,17.4,29.89,NW,319,5.2,8.1,35,0.00,CLR,,0.00,WeatherDisplay:10.37,2013-02-24 11:54:00,
2013-02-24 06:55:00,43.1,17.3,29.89,NW,323,8.2,13.0,35,0.00,CLR,,0.00,WeatherDisplay:10.37,2013-02-24 11:55:00,
2013-02-24 06:58:00,43.6,17.0,29.89,NW,304,8.7,11.5,34,0.00,CLR,,0.00,WeatherDisplay:10.37,2013-02-24 11:58:00,
2013-02-24 06:59:00,43.4,16.9,29.89,NW,319,6.0,11.5,34,0.00,CLR,,0.00,WeatherDisplay:10.37,2013-02-24 11:59:00,
2013-02-24 07:00:00,43.6,17.0,29.89,WNW,302,6.9,9.2,34,0.00,CLR,,0.00,WeatherDisplay:10.37,2013-02-24 12:00:00,
2013-02-24 07:03:00,43.3,16.8,29.90,NW,311,8.6,12.7,34,0.00,CLR,,0.00,WeatherDisplay:10.37,2013-02-24 12:03:00,
2013-02-24 07:04:00,43.1,16.6,29.90,NW,304,9.1,12.7,34,0.00,CLR,,0.00,WeatherDisplay:10.37,2013-02-24 12:04:00,
2013-02-24 07:05:00,43.4,16.9,29.90,NNW,328,8.5,11.5,34,0.00,CLR,,0.00,WeatherDisplay:10.37,2013-02-24 12:05:00,
2013-02-24 07:09:00,43.2,17.4,29.90,WNW,295,5.0,9.2,35,0.00,CLR,,0.00,WeatherDisplay:10.37,2013-02-24 12:09:00,
2013-02-24 07:10:00,42.9,17.1,29.89,WNW,291,3.8,8.1,35,0.00,CLR,,0.00,WeatherDisplay:10.37,2013-02-24 12:10:00,
2013-02-24 07:14:00,42.7,16.9,29.90,WNW,302,5.8,10.4,35,0.00,CLR,,0.00,WeatherDisplay:10.37,2013-02-24 12:14:00,
2013-02-24 07:15:00,42.9,17.1,29.90,NW,312,6.7,10.4,35,0.00,CLR,,0.00,WeatherDisplay:10.37,2013-02-24 12:15:00,
2013-02-24 07:16:00,42.9,17.1,29.90,NW,311,7.9,13.8,35,0.00,CLR,,0.00,WeatherDisplay:10.37,2013-02-24 12:16:00,
2013-02-24 07:20:00,42.9,17.1,29.91,West,275,5.7,10.2,35,0.00,CLR,,0.00,WeatherDisplay:10.37,2013-02-24 12:20:00,
2013-02-24 07:21:00,42.6,16.8,29.91,WNW,291,8.1,11.5,35,0.00,CLR,,0.00,WeatherDisplay:10.37,2013-02-24 12:21:00,
2013-02-24 07:25:00,42.9,17.1,29.91,NW,320,5.5,8.1,35,0.00,CLR,,0.00,WeatherDisplay:10.37,2013-02-24 12:25:00,
2013-02-24 07:26:00,42.8,17.0,29.91,NNW,347,7.5,11.5,35,0.00,CLR,,0.00,WeatherDisplay:10.37,2013-02-24 12:26:00,
2013-02-24 07:30:00,42.6,16.2,29.92,WNW,292,7.7,11.5,34,0.00,CLR,,0.00,WeatherDisplay:10.37,2013-02-24 12:30:00,
2013-02-24 07:31:00,42.7,16.2,29.92,WNW,291,6.7,9.2,34,0.00,CLR,,0.00,WeatherDisplay:10.37,2013-02-24 12:31:00,
2013-02-24 07:35:00,43.0,17.2,29.92,West,270,4.8,9.2,35,0.00,CLR,,0.00,WeatherDisplay:10.37,2013-02-24 12:35:00,
2013-02-24 07:36:00,42.8,16.3,29.92,WNW,299,4.9,8.1,34,0.00,CLR,,0.00,WeatherDisplay:10.37,2013-02-24 12:36:00,
2013-02-24 07:40:00,42.5,16.7,29.93,WNW,291,7.0,10.4,35,0.00,CLR,,0.00,WeatherDisplay:10.37,2013-02-24 12:40:00,
2013-02-24 07:41:00,42.8,17.7,29.93,West,274,4.3,6.9,36,0.00,CLR,,0.00,WeatherDisplay:10.37,2013-02-24 12:41:00,
2013-02-24 07:45:00,42.9,17.1,29.93,West,277,7.3,9.2,35,0.00,CLR,,0.00,WeatherDisplay:10.37,2013-02-24 12:45:00,
2013-02-24 07:46:00,42.9,17.1,29.93,WNW,284,4.8,9.2,35,0.00,CLR,,0.00,WeatherDisplay:10.37,2013-02-24 12:46:00,
2013-02-24 07:47:00,43.1,17.9,29.93,NNW,346,3.2,8.1,36,0.00,CLR,,0.00,WeatherDisplay:10.37,2013-02-24 12:47:00,
2013-02-24 07:50:00,43.1,17.9,29.93,WNW,295,7.3,9.2,36,0.00,CLR,,0.00,WeatherDisplay:10.37,2013-02-24 12:50:00,
2013-02-24 07:51:00,43.1,17.9,29.93,WNW,294,7.0,12.7,36,0.00,CLR,,0.00,WeatherDisplay:10.37,2013-02-24 12:51:00,
2013-02-24 07:52:00,43.2,18.0,29.93,WNW,298,4.7,6.9,36,0.00,CLR,,0.00,WeatherDisplay:10.37,2013-02-24 12:52:00,
2013-02-24 07:55:00,43.2,18.0,29.93,WNW,294,7.7,15.0,36,0.00,CLR,,0.00,WeatherDisplay:10.37,2013-02-24 12:55:00,
2013-02-24 07:56:00,43.0,17.8,29.93,NNW,328,6.7,9.2,36,0.00,CLR,,0.00,WeatherDisplay:10.37,2013-02-24 12:56:00,
2013-02-24 07:57:00,43.0,17.2,29.93,WNW,292,8.2,13.8,35,0.00,CLR,,0.00,WeatherDisplay:10.37,2013-02-24 12:57:00,
2013-02-24 08:00:00,43.2,17.4,29.93,NW,305,7.6,11.5,35,0.00,CLR,,0.00,WeatherDisplay:10.37,2013-02-24 13:00:00,
2013-02-24 08:01:00,43.0,17.8,29.93,West,281,7.7,11.5,36,0.00,CLR,,0.00,WeatherDisplay:10.37,2013-02-24 13:01:00,
2013-02-24 08:02:00,43.2,17.4,29.93,NW,322,8.1,13.8,35,0.00,CLR,,0.00,WeatherDisplay:10.37,2013-02-24 13:02:00,
2013-02-24 08:06:00,43.2,16.7,29.93,NW,316,8.4,10.4,34,0.00,CLR,,0.00,WeatherDisplay:10.37,2013-02-24 13:06:00,
2013-02-24 08:07:00,43.3,16.8,29.93,West,281,7.5,12.7,34,0.00,CLR,,0.00,WeatherDisplay:10.37,2013-02-24 13:07:00,
2013-02-24 08:08:00,43.4,17.5,29.93,NW,320,8.1,10.4,35,0.00,CLR,,0.00,WeatherDisplay:10.37,2013-02-24 13:08:00,
2013-02-24 08:11:00,43.6,17.7,29.93,NW,312,6.7,9.2,35,0.00,CLR,,0.00,WeatherDisplay:10.37,2013-02-24 13:11:00,
2013-02-24 08:12:00,43.8,17.2,29.93,NW,320,7.0,10.4,34,0.00,CLR,,0.00,WeatherDisplay:10.37,2013-02-24 13:12:00,
2013-02-24 08:13:00,43.3,16.8,29.93,NW,320,7.1,11.5,34,0.00,CLR,,0.00,WeatherDisplay:10.37,2013-02-24 13:13:00,
2013-02-24 08:16:00,43.7,17.1,29.93,NW,306,10.7,16.1,34,0.00,CLR,,0.00,WeatherDisplay:10.37,2013-02-24 13:16:00,
2013-02-24 08:17:00,43.6,16.3,29.93,NW,308,9.2,15.0,33,0.00,CLR,,0.00,WeatherDisplay:10.37,2013-02-24 13:17:00,
2013-02-24 08:18:00,43.7,17.1,29.93,NW,323,7.1,11.5,34,0.00,CLR,,0.00,WeatherDisplay:10.37,2013-02-24 13:18:00,
2013-02-24 08:21:00,43.7,16.4,29.94,WNW,294,7.4,11.5,33,0.00,CLR,,0.00,WeatherDisplay:10.37,2013-02-24 13:21:00,
2013-02-24 08:22:00,43.6,15.6,29.94,WNW,288,8.6,16.1,32,0.00,CLR,,0.00,WeatherDisplay:10.37,2013-02-24 13:22:00,
2013-02-24 08:23:00,43.7,15.7,29.94,WNW,289,7.6,12.2,32,0.00,CLR,,0.00,WeatherDisplay:10.37,2013-02-24 13:23:00,
2013-02-24 08:26:00,43.8,15.8,29.93,NW,325,6.5,9.2,32,0.00,CLR,,0.00,WeatherDisplay:10.37,2013-02-24 13:26:00,
2013-02-24 08:27:00,44.1,15.3,29.94,WNW,301,9.1,13.3,31,0.00,CLR,,0.00,WeatherDisplay:10.37,2013-02-24 13:27:00,
2013-02-24 08:28:00,44.0,16.0,29.93,West,278,8.2,12.7,32,0.00,CLR,,0.00,WeatherDisplay:10.37,2013-02-24 13:28:00,
2013-02-24 08:31:00,44.2,15.4,29.94,WNW,296,7.5,11.5,31,0.00,CLR,,0.00,WeatherDisplay:10.37,2013-02-24 13:31:00,
2013-02-24 08:32:00,44.3,15.5,29.94,NW,316,6.9,15.4,31,0.00,CLR,,0.00,WeatherDisplay:10.37,2013-02-24 13:32:00,
2013-02-24 08:33:00,44.4,16.3,29.94,NNW,342,6.4,15.0,32,0.00,CLR,,0.00,WeatherDisplay:10.37,2013-02-24 13:33:00,
2013-02-24 08:36:00,44.6,15.0,29.94,NW,322,8.5,12.7,30,0.00,CLR,,0.00,WeatherDisplay:10.37,2013-02-24 13:36:00,
2013-02-24 08:37:00,44.8,16.0,29.94,West,271,8.1,11.5,31,0.00,CLR,,0.00,WeatherDisplay:10.37,2013-02-24 13:37:00,
2013-02-24 08:38:00,44.6,15.0,29.94,NW,325,8.5,11.5,30,0.00,CLR,,0.00,WeatherDisplay:10.37,2013-02-24 13:38:00,
2013-02-24 08:39:00,44.5,14.9,29.94,WNW,287,8.9,12.7,30,0.00,CLR,,0.00,WeatherDisplay:10.37,2013-02-24 13:39:00,
2013-02-24 08:41:00,44.9,14.5,29.94,NW,309,5.6,9.2,29,0.00,CLR,,0.00,WeatherDisplay:10.37,2013-02-24 13:41:00,
2013-02-24 08:42:00,45.2,14.0,29.94,WNW,298,7.2,11.8,28,0.00,CLR,,0.00,WeatherDisplay:10.37,2013-02-24 13:42:00,
2013-02-24 08:43:00,45.1,13.9,29.94,NW,313,7.7,11.5,28,0.00,CLR,,0.00,WeatherDisplay:10.37,2013-02-24 13:43:00,
2013-02-24 08:44:00,45.1,12.2,29.95,WSW,251,8.3,13.8,26,0.00,CLR,,0.00,WeatherDisplay:10.37,2013-02-24 13:44:00,
2013-02-24 08:46:00,45.3,13.2,29.95,WNW,292,7.0,11.5,27,0.00,CLR,,0.00,WeatherDisplay:10.37,2013-02-24 13:46:00,
2013-02-24 08:48:00,45.3,14.1,29.95,West,260,5.6,11.5,28,0.00,CLR,,0.00,WeatherDisplay:10.37,2013-02-24 13:48:00,
2013-02-24 08:49:00,45.4,12.5,29.95,NW,326,5.1,10.4,26,0.00,CLR,,0.00,WeatherDisplay:10.37,2013-02-24 13:49:00,
2013-02-24 08:51:00,45.9,12.9,29.95,NW,312,7.8,15.0,26,0.00,CLR,,0.00,WeatherDisplay:10.37,2013-02-24 13:51:00,
2013-02-24 08:53:00,45.2,10.5,29.95,WNW,289,10.6,13.8,24,0.00,CLR,,0.00,WeatherDisplay:10.37,2013-02-24 13:53:00,
2013-02-24 08:54:00,45.2,10.5,29.95,NW,312,12.7,20.7,24,0.00,CLR,,0.00,WeatherDisplay:10.37,2013-02-24 13:54:00,
2013-02-24 08:56:00,44.8,9.2,29.95,NW,312,11.3,17.3,23,0.00,CLR,,0.00,WeatherDisplay:10.37,2013-02-24 13:56:00,
2013-02-24 08:58:00,45.0,9.4,29.95,West,274,4.9,8.1,23,0.00,CLR,,0.00,WeatherDisplay:10.37,2013-02-24 13:58:00,
2013-02-24 09:00:00,45.0,9.4,29.95,WNW,301,8.2,13.8,23,0.00,CLR,,0.00,WeatherDisplay:10.37,2013-02-24 14:00:00,
2013-02-24 09:01:00,45.0,8.4,29.95,West,270,10.7,11.5,22,0.00,CLR,,0.00,WeatherDisplay:10.37,2013-02-24 14:01:00,
2013-02-24 09:03:00,45.1,9.4,29.95,NW,322,9.2,13.8,23,0.00,CLR,,0.00,WeatherDisplay:10.37,2013-02-24 14:03:00,
2013-02-24 09:05:00,45.3,8.6,29.95,NW,308,8.8,11.5,22,0.00,CLR,,0.00,WeatherDisplay:10.37,2013-02-24 14:05:00,
2013-02-24 09:06:00,45.1,9.4,29.95,WNW,285,9.0,11.5,23,0.00,CLR,,0.00,WeatherDisplay:10.37,2013-02-24 14:06:00,
2013-02-24 09:08:00,45.0,7.3,29.95,NNW,329,13.6,18.4,21,0.00,CLR,,0.00,WeatherDisplay:10.37,2013-02-24 14:08:00,
2013-02-24 09:09:00,45.1,7.4,29.95,WNW,292,12.8,19.6,21,0.00,CLR,,0.00,WeatherDisplay:10.37,2013-02-24 14:09:00,
2013-02-24 09:10:00,44.6,7.0,29.95,WNW,289,12.8,21.9,21,0.00,CLR,,0.00,WeatherDisplay:10.37,2013-02-24 14:10:00,
2013-02-24 09:11:00,44.9,8.3,29.95,West,277,10.0,18.4,22,0.00,CLR,,0.00,WeatherDisplay:10.37,2013-02-24 14:11:00,
2013-02-24 09:13:00,45.0,7.3,29.95,WNW,302,12.5,18.4,21,0.00,CLR,,0.00,WeatherDisplay:10.37,2013-02-24 14:13:00,
2013-02-24 09:14:00,44.9,7.3,29.95,WNW,299,10.4,17.3,21,0.00,CLR,,0.00,WeatherDisplay:10.37,2013-02-24 14:14:00,
2013-02-24 09:15:00,45.0,7.3,29.95,NW,305,12.2,18.7,21,0.00,CLR,,0.00,WeatherDisplay:10.37,2013-02-24 14:15:00,
2013-02-24 09:16:00,44.8,6.1,29.95,NNW,336,12.5,19.6,20,0.00,CLR,,0.00,WeatherDisplay:10.37,2013-02-24 14:16:00,
2013-02-24 09:18:00,44.8,7.2,29.95,WNW,282,10.5,17.3,21,0.00,CLR,,0.00,WeatherDisplay:10.37,2013-02-24 14:18:00,
2013-02-24 09:19:00,45.1,7.4,29.95,WNW,289,11.2,16.1,21,0.00,CLR,,0.00,WeatherDisplay:10.37,2013-02-24 14:19:00,
2013-02-24 09:20:00,44.7,7.1,29.95,NNW,328,12.5,19.0,21,0.00,CLR,,0.00,WeatherDisplay:10.37,2013-02-24 14:20:00,
2013-02-24 09:22:00,45.0,7.3,29.95,WNW,291,13.2,19.6,21,0.00,CLR,,0.00,WeatherDisplay:10.37,2013-02-24 14:22:00,
2013-02-24 09:23:00,45.1,6.3,29.95,WNW,299,9.1,19.6,20,0.00,CLR,,0.00,WeatherDisplay:10.37,2013-02-24 14:23:00,
2013-02-24 09:24:00,45.1,7.4,29.95,NW,315,11.1,16.1,21,0.00,CLR,,0.00,WeatherDisplay:10.37,2013-02-24 14:24:00,
2013-02-24 09:25:00,44.9,7.3,29.95,WNW,299,10.5,15.0,21,0.00,CLR,,0.00,WeatherDisplay:10.37,2013-02-24 14:25:00,
2013-02-24 09:27:00,44.9,6.2,29.95,WNW,296,10.8,17.3,20,0.00,CLR,,0.00,WeatherDisplay:10.37,2013-02-24 14:27:00,
2013-02-24 09:29:00,45.3,7.6,29.95,NNW,337,10.2,18.3,21,0.00,CLR,,0.00,WeatherDisplay:10.37,2013-02-24 14:29:00,
2013-02-24 09:30:00,45.0,7.3,29.95,WNW,299,12.5,18.4,21,0.00,CLR,,0.00,WeatherDisplay:10.37,2013-02-24 14:30:00,
2013-02-24 09:32:00,45.3,7.6,29.95,NW,316,8.4,13.8,21,0.00,CLR,,0.00,WeatherDisplay:10.37,2013-02-24 14:32:00,
2013-02-24 09:34:00,45.5,7.8,29.95,NNW,333,9.2,12.2,21,0.00,CLR,,0.00,WeatherDisplay:10.37,2013-02-24 14:34:00,
2013-02-24 09:35:00,45.4,7.7,29.95,WNW,296,13.7,20.7,21,0.00,CLR,,0.00,WeatherDisplay:10.37,2013-02-24 14:35:00,
2013-02-24 09:36:00,45.3,7.6,29.95,NNW,328,11.7,17.3,21,0.00,CLR,,0.00,WeatherDisplay:10.37,2013-02-24 14:36:00,
2013-02-24 09:37:00,45.0,7.3,29.95,NNW,328,10.4,18.4,21,0.00,CLR,,0.00,WeatherDisplay:10.37,2013-02-24 14:37:00,
2013-02-24 09:39:00,45.5,6.7,29.95,NNW,335,10.4,15.7,20,0.00,CLR,,0.00,WeatherDisplay:10.37,2013-02-24 14:39:00,
2013-02-24 09:40:00,45.4,6.6,29.95,North,3,13.5,17.3,20,0.00,CLR,,0.00,WeatherDisplay:10.37,2013-02-24 14:40:00,
2013-02-24 09:41:00,44.9,6.2,29.95,WNW,301,12.2,19.6,20,0.00,CLR,,0.00,WeatherDisplay:10.37,2013-02-24 14:41:00,
2013-02-24 09:42:00,45.8,8.0,29.95,NNW,333,6.4,13.8,21,0.00,CLR,,0.00,WeatherDisplay:10.37,2013-02-24 14:42:00,
2013-02-24 09:44:00,45.2,7.5,29.95,WNW,292,11.8,19.6,21,0.00,CLR,,0.00,WeatherDisplay:10.37,2013-02-24 14:44:00,
2013-02-24 09:46:00,45.1,7.4,29.95,NW,313,12.0,18.4,21,0.00,CLR,,0.00,WeatherDisplay:10.37,2013-02-24 14:46:00,
2013-02-24 09:47:00,45.6,6.8,29.95,West,271,9.3,19.6,20,0.00,CLR,,0.00,WeatherDisplay:10.37,2013-02-24 14:47:00,
2013-02-24 09:49:00,45.0,6.3,29.95,WNW,295,10.4,20.7,20,0.00,CLR,,0.00,WeatherDisplay:10.37,2013-02-24 14:49:00,
2013-02-24 09:51:00,45.3,7.6,29.95,NNW,333,9.3,15.0,21,0.00,CLR,,0.00,WeatherDisplay:10.37,2013-02-24 14:51:00,
2013-02-24 09:52:00,45.5,6.7,29.95,NW,304,11.7,15.0,20,0.00,CLR,,0.00,WeatherDisplay:10.37,2013-02-24 14:52:00,
2013-02-24 09:55:00,45.5,7.8,29.95,North,352,10.1,13.8,21,0.00,CLR,,0.00,WeatherDisplay:10.37,2013-02-24 14:55:00,
2013-02-24 09:56:00,45.4,6.6,29.95,NW,318,11.4,16.1,20,0.00,CLR,,0.00,WeatherDisplay:10.37,2013-02-24 14:56:00,
2013-02-24 09:57:00,45.6,6.8,29.95,NW,323,11.0,15.0,20,0.00,CLR,,0.00,WeatherDisplay:10.37,2013-02-24 14:57:00,
2013-02-24 10:00:00,45.6,7.8,29.95,NW,306,7.1,10.4,21,0.00,CLR,,0.00,WeatherDisplay:10.37,2013-02-24 15:00:00,
2013-02-24 10:01:00,45.8,8.0,29.95,WNW,282,9.9,13.8,21,0.00,CLR,,0.00,WeatherDisplay:10.37,2013-02-24 15:01:00,
2013-02-24 10:02:00,45.5,6.7,29.95,NNW,335,14.1,17.3,20,0.00,CLR,,0.00,WeatherDisplay:10.37,2013-02-24 15:02:00,
2013-02-24 10:03:00,45.5,6.7,29.95,NNW,343,12.5,18.4,20,0.00,CLR,,0.00,WeatherDisplay:10.37,2013-02-24 15:03:00,
2013-02-24 10:05:00,45.1,6.3,29.95,NW,308,13.0,19.6,20,0.00,CLR,,0.00,WeatherDisplay:10.37,2013-02-24 15:05:00,
2013-02-24 10:06:00,45.5,6.7,29.95,NW,326,11.4,19.6,20,0.00,CLR,,0.00,WeatherDisplay:10.37,2013-02-24 15:06:00,
2013-02-24 10:07:00,45.6,7.8,29.95,West,260,10.7,16.1,21,0.00,CLR,,0.00,WeatherDisplay:10.37,2013-02-24 15:07:00,
2013-02-24 10:08:00,45.7,5.7,29.95,WNW,298,12.1,17.3,19,0.00,CLR,,0.00,WeatherDisplay:10.37,2013-02-24 15:08:00,
2013-02-24 10:10:00,45.7,6.8,29.95,WNW,299,10.9,16.1,20,0.00,CLR,,0.00,WeatherDisplay:10.37,2013-02-24 15:10:00,
2013-02-24 10:11:00,45.8,5.8,29.95,WNW,295,12.2,17.3,19,0.00,CLR,,0.00,WeatherDisplay:10.37,2013-02-24 15:11:00,
2013-02-24 10:12:00,45.3,4.2,29.95,NNW,347,14.3,16.1,18,0.00,CLR,,0.00,WeatherDisplay:10.37,2013-02-24 15:12:00,
2013-02-24 10:13:00,45.4,5.5,29.95,NW,305,14.1,20.7,19,0.00,CLR,,0.00,WeatherDisplay:10.37,2013-02-24 15:13:00,
2013-02-24 10:15:00,46.2,7.3,29.95,NW,315,5.9,13.8,20,0.00,CLR,,0.00,WeatherDisplay:10.37,2013-02-24 15:15:00,
2013-02-24 10:16:00,46.8,6.6,29.95,North,4,6.4,9.2,19,0.00,CLR,,0.00,WeatherDisplay:10.37,2013-02-24 15:16:00,
2013-02-24 10:18:00,46.8,6.6,29.95,NW,312,5.4,10.4,19,0.00,CLR,,0.00,WeatherDisplay:10.37,2013-02-24 15:18:00,
2013-02-24 10:21:00,47.0,5.6,29.95,NNW,328,7.6,13.8,18,0.00,CLR,,0.00,WeatherDisplay:10.37,2013-02-24 15:21:00,
2013-02-24 10:22:00,46.9,5.5,29.95,NNW,339,5.8,8.1,18,0.00,CLR,,0.00,WeatherDisplay:10.37,2013-02-24 15:22:00,
2013-02-24 10:23:00,47.3,7.0,29.95,NW,309,2.1,5.8,19,0.00,CLR,,0.00,WeatherDisplay:10.37,2013-02-24 15:23:00,
2013-02-24 10:26:00,47.1,5.7,29.95,NW,311,6.5,9.2,18,0.00,CLR,,0.00,WeatherDisplay:10.37,2013-02-24 15:26:00,
2013-02-24 10:27:00,47.0,4.4,29.95,WSW,257,8.3,11.5,17,0.00,CLR,,0.00,WeatherDisplay:10.37,2013-02-24 15:27:00,
2013-02-24 10:28:00,46.8,4.2,29.95,NW,308,8.6,15.4,17,0.00,CLR,,0.00,WeatherDisplay:10.37,2013-02-24 15:28:00,
2013-02-24 10:29:00,46.7,5.4,29.95,WNW,288,8.8,15.0,18,0.00,CLR,,0.00,WeatherDisplay:10.37,2013-02-24 15:29:00,
2013-02-24 10:31:00,46.7,6.5,29.95,WNW,285,7.7,10.4,19,0.00,CLR,,0.00,WeatherDisplay:10.37,2013-02-24 15:31:00,
2013-02-24 10:32:00,47.1,6.9,29.95,NW,318,6.0,11.4,19,0.00,CLR,,0.00,WeatherDisplay:10.37,2013-02-24 15:32:00,
2013-02-24 10:33:00,46.9,5.5,29.95,NW,325,8.0,11.5,18,0.00,CLR,,0.00,WeatherDisplay:10.37,2013-02-24 15:33:00,
2013-02-24 10:34:00,46.9,5.5,29.95,NW,304,7.4,10.4,18,0.00,CLR,,0.00,WeatherDisplay:10.37,2013-02-24 15:34:00,
2013-02-24 10:36:00,47.2,5.8,29.95,WNW,298,3.7,6.9,18,0.00,CLR,,0.00,WeatherDisplay:10.37,2013-02-24 15:36:00,
2013-02-24 10:37:00,47.4,5.9,29.95,WNW,301,5.9,10.4,18,0.00,CLR,,0.00,WeatherDisplay:10.37,2013-02-24 15:37:00,
2013-02-24 10:38:00,47.4,4.7,29.95,NW,323,4.7,10.4,17,0.00,CLR,,0.00,WeatherDisplay:10.37,2013-02-24 15:38:00,
2013-02-24 10:39:00,47.3,5.9,29.95,West,272,6.9,10.4,18,0.00,CLR,,0.00,WeatherDisplay:10.37,2013-02-24 15:39:00,
2013-02-24 10:41:00,47.4,4.7,29.95,WNW,288,6.1,17.5,17,0.00,CLR,,0.00,WeatherDisplay:10.37,2013-02-24 15:41:00,
2013-02-24 10:42:00,47.2,3.2,29.95,NNW,337,10.3,17.3,16,0.00,CLR,,0.00,WeatherDisplay:10.37,2013-02-24 15:42:00,
2013-02-24 10:44:00,47.1,5.7,29.95,West,277,3.8,17.3,18,0.00,CLR,,0.00,WeatherDisplay:10.37,2013-02-24 15:44:00,
2013-02-24 10:45:00,46.9,5.5,29.94,West,267,5.0,11.5,18,0.00,CLR,,0.00,WeatherDisplay:10.37,2013-02-24 15:45:00,
2013-02-24 10:46:00,46.4,3.9,29.94,West,278,12.1,16.1,17,0.00,CLR,,0.00,WeatherDisplay:10.37,2013-02-24 15:46:00,
2013-02-24 10:47:00,46.5,5.2,29.95,WSW,250,10.4,18.4,18,0.00,CLR,,0.00,WeatherDisplay:10.37,2013-02-24 15:47:00,
2013-02-24 10:49:00,47.0,5.6,29.95,WNW,299,9.4,16.1,18,0.00,CLR,,0.00,WeatherDisplay:10.37,2013-02-24 15:49:00,
2013-02-24 10:50:00,47.0,5.6,29.94,West,264,7.8,14.3,18,0.00,CLR,,0.00,WeatherDisplay:10.37,2013-02-24 15:50:00,
2013-02-24 10:51:00,47.2,4.5,29.94,NW,306,9.7,13.8,17,0.00,CLR,,0.00,WeatherDisplay:10.37,2013-02-24 15:51:00,
2013-02-24 10:52:00,46.8,5.4,29.94,WSW,257,8.4,13.8,18,0.00,CLR,,0.00,WeatherDisplay:10.37,2013-02-24 15:52:00,
2013-02-24 10:55:00,46.9,5.5,29.94,NW,312,11.5,18.4,18,0.00,CLR,,0.00,WeatherDisplay:10.37,2013-02-24 15:55:00,
2013-02-24 10:56:00,47.2,3.2,29.94,NW,304,10.3,14.4,16,0.00,CLR,,0.00,WeatherDisplay:10.37,2013-02-24 15:56:00,
2013-02-24 10:57:00,46.5,3.9,29.94,WNW,298,11.9,20.7,17,0.00,CLR,,0.00,WeatherDisplay:10.37,2013-02-24 15:57:00,
2013-02-24 11:00:00,47.1,3.1,29.94,NW,319,9.7,17.3,16,0.00,CLR,,0.00,WeatherDisplay:10.37,2013-02-24 16:00:00,
2013-02-24 11:01:00,47.2,3.2,29.94,WNW,295,9.1,16.3,16,0.00,CLR,,0.00,WeatherDisplay:10.37,2013-02-24 16:01:00,
2013-02-24 11:02:00,47.5,6.0,29.94,NW,320,8.5,16.1,18,0.00,CLR,,0.00,WeatherDisplay:10.37,2013-02-24 16:02:00,
2013-02-24 11:05:00,47.4,3.4,29.94,SW,216,9.8,12.7,16,0.00,CLR,,0.00,WeatherDisplay:10.37,2013-02-24 16:05:00,
2013-02-24 11:06:00,47.6,3.5,29.94,NW,308,9.3,11.5,16,0.00,CLR,,0.00,WeatherDisplay:10.37,2013-02-24 16:06:00,
2013-02-24 11:07:00,47.5,3.4,29.94,WNW,292,9.0,13.8,16,0.00,CLR,,0.00,WeatherDisplay:10.37,2013-02-24 16:07:00,
2013-02-24 11:10:00,47.4,4.7,29.94,WNW,295,8.6,15.5,17,0.00,CLR,,0.00,WeatherDisplay:10.37,2013-02-24 16:10:00,
2013-02-24 11:11:00,47.4,2.0,29.95,West,264,11.5,18.4,15,0.00,CLR,,0.00,WeatherDisplay:10.37,2013-02-24 16:11:00,
2013-02-24 11:12:00,47.5,3.4,29.94,West,281,8.6,16.1,16,0.00,CLR,,0.00,WeatherDisplay:10.37,2013-02-24 16:12:00,
2013-02-24 11:15:00,47.6,4.9,29.95,NW,315,11.1,17.3,17,0.00,CLR,,0.00,WeatherDisplay:10.37,2013-02-24 16:15:00,
2013-02-24 11:16:00,47.6,4.9,29.94,NW,316,7.7,16.1,17,0.00,CLR,,0.00,WeatherDisplay:10.37,2013-02-24 16:16:00,
2013-02-24 11:17:00,48.0,1.0,29.95,WSW,251,10.0,13.8,14,0.00,CLR,,0.00,WeatherDisplay:10.37,2013-02-24 16:17:00,
2013-02-24 11:20:00,47.8,3.7,29.95,NNW,335,9.3,16.1,16,0.00,CLR,,0.00,WeatherDisplay:10.37,2013-02-24 16:20:00,
2013-02-24 11:21:00,47.8,5.0,29.95,NW,305,9.2,16.1,17,0.00,CLR,,0.00,WeatherDisplay:10.37,2013-02-24 16:21:00,
2013-02-24 11:22:00,47.8,0.8,29.95,WNW,302,8.3,13.8,14,0.00,CLR,,0.00,WeatherDisplay:10.37,2013-02-24 16:22:00,
2013-02-24 11:26:00,47.4,3.4,29.95,WSW,248,11.0,20.7,16,0.00,CLR,,0.00,WeatherDisplay:10.37,2013-02-24 16:26:00,
2013-02-24 11:27:00,47.8,2.3,29.95,West,268,6.2,11.5,15,0.00,CLR,,0.00,WeatherDisplay:10.37,2013-02-24 16:27:00,
2013-02-24 11:31:00,48.3,4.1,29.95,WNW,302,8.7,11.5,16,0.00,CLR,,0.00,WeatherDisplay:10.37,2013-02-24 16:31:00,
2013-02-24 11:32:00,48.2,4.0,29.95,West,268,9.6,12.7,16,0.00,CLR,,0.00,WeatherDisplay:10.37,2013-02-24 16:32:00,
2013-02-24 11:36:00,48.5,2.9,29.95,WNW,294,6.7,11.5,15,0.00,CLR,,0.00,WeatherDisplay:10.37,2013-02-24 16:36:00,
2013-02-24 11:37:00,48.4,-0.3,29.95,NNW,332,11.4,15.5,13,0.00,CLR,,0.00,WeatherDisplay:10.37,2013-02-24 16:37:00,
2013-02-24 11:38:00,48.5,2.9,29.95,NNW,337,12.3,19.6,15,0.00,CLR,,0.00,WeatherDisplay:10.37,2013-02-24 16:38:00,
2013-02-24 11:41:00,48.4,1.3,29.95,West,272,9.6,16.1,14,0.00,CLR,,0.00,WeatherDisplay:10.37,2013-02-24 16:41:00,
2013-02-24 11:42:00,48.2,-0.5,29.95,WNW,294,12.4,15.0,13,0.00,CLR,,0.00,WeatherDisplay:10.37,2013-02-24 16:42:00,
2013-02-24 11:43:00,47.7,-0.8,29.95,NW,308,12.8,16.1,13,0.00,CLR,,0.00,WeatherDisplay:10.37,2013-02-24 16:43:00,
2013-02-24 11:46:00,48.2,-2.1,29.95,WNW,282,8.3,13.8,12,0.00,CLR,,0.00,WeatherDisplay:10.37,2013-02-24 16:46:00,
2013-02-24 11:47:00,48.2,-0.5,29.95,WNW,289,12.2,16.1,13,0.00,CLR,,0.00,WeatherDisplay:10.37,2013-02-24 16:47:00,
2013-02-24 11:48:00,48.5,1.4,29.95,NNW,344,11.0,16.1,14,0.00,CLR,,0.00,WeatherDisplay:10.37,2013-02-24 16:48:00,
2013-02-24 11:51:00,48.2,1.1,29.94,NNW,342,12.1,17.3,14,0.00,CLR,,0.00,WeatherDisplay:10.37,2013-02-24 16:51:00,
2013-02-24 11:53:00,48.5,1.4,29.94,NW,308,8.9,14.4,14,0.00,CLR,,0.00,WeatherDisplay:10.37,2013-02-24 16:53:00,
2013-02-24 11:56:00,48.5,-1.9,29.95,NW,325,6.2,15.0,12,0.00,CLR,,0.00,WeatherDisplay:10.37,2013-02-24 16:56:00,
2013-02-24 11:57:00,48.5,1.4,29.95,WNW,292,6.0,9.2,14,0.00,CLR,,0.00,WeatherDisplay:10.37,2013-02-24 16:57:00,
2013-02-24 11:58:00,48.7,-1.8,29.94,West,270,7.0,10.4,12,0.00,CLR,,0.00,WeatherDisplay:10.37,2013-02-24 16:58:00,
2013-02-24 12:01:00,48.5,-1.9,29.94,NW,320,11.6,18.3,12,0.00,CLR,,0.00,WeatherDisplay:10.37,2013-02-24 17:01:00,
2013-02-24 12:02:00,48.3,-2.1,29.94,WNW,292,12.9,20.7,12,0.00,CLR,,0.00,WeatherDisplay:10.37,2013-02-24 17:02:00,
2013-02-24 12:03:00,48.3,-0.4,29.94,NW,320,9.8,13.8,13,0.00,CLR,,0.00,WeatherDisplay:10.37,2013-02-24 17:03:00,
2013-02-24 12:06:00,48.5,-1.9,29.94,NW,323,12.1,15.0,12,0.00,CLR,,0.00,WeatherDisplay:10.37,2013-02-24 17:06:00,
2013-02-24 12:07:00,48.5,-3.7,29.94,WNW,298,12.4,18.4,11,0.00,CLR,,0.00,WeatherDisplay:10.37,2013-02-24 17:07:00,
2013-02-24 12:08:00,48.5,-0.2,29.94,NW,322,10.0,15.0,13,0.00,CLR,,0.00,WeatherDisplay:10.37,2013-02-24 17:08:00,
2013-02-24 12:11:00,49.1,-5.3,29.94,West,275,8.4,13.8,10,0.00,CLR,,0.00,WeatherDisplay:10.37,2013-02-24 17:11:00,
2013-02-24 12:12:00,49.3,-5.1,29.94,WSW,250,8.3,11.5,10,0.00,CLR,,0.00,WeatherDisplay:10.37,2013-02-24 17:12:00,
2013-02-24 12:13:00,49.1,-3.3,29.94,NNW,347,8.3,12.7,11,0.00,CLR,,0.00,WeatherDisplay:10.37,2013-02-24 17:13:00,
2013-02-24 12:17:00,49.1,-5.3,29.94,West,277,11.0,23.0,10,0.00,CLR,,0.00,WeatherDisplay:10.37,2013-02-24 17:17:00,
2013-02-24 12:18:00,49.1,-5.3,29.94,West,261,11.1,15.0,10,0.00,CLR,,0.00,WeatherDisplay:10.37,2013-02-24 17:18:00,
2013-02-24 12:19:00,49.2,-5.2,29.94,West,277,10.0,16.1,10,0.00,CLR,,0.00,WeatherDisplay:10.37,2013-02-24 17:19:00,
2013-02-24 12:22:00,49.1,-5.3,29.93,WSW,256,5.8,11.5,10,0.00,CLR,,0.00,WeatherDisplay:10.37,2013-02-24 17:22:00,
2013-02-24 12:23:00,49.4,-5.0,29.93,NW,320,7.1,11.5,10,0.00,CLR,,0.00,WeatherDisplay:10.37,2013-02-24 17:23:00,
2013-02-24 12:24:00,49.5,-3.0,29.93,North,0,7.9,15.0,11,0.00,CLR,,0.00,WeatherDisplay:10.37,2013-02-24 17:24:00,
2013-02-24 12:27:00,49.4,-7.2,29.93,NW,316,12.9,19.6,9,0.00,CLR,,0.00,WeatherDisplay:10.37,2013-02-24 17:27:00,
2013-02-24 12:28:00,48.7,-7.7,29.93,North,350,12.0,17.3,9,0.00,CLR,,0.00,WeatherDisplay:10.37,2013-02-24 17:28:00,
2013-02-24 12:29:00,48.5,-5.7,29.93,NNW,336,12.4,16.1,10,0.00,CLR,,0.00,WeatherDisplay:10.37,2013-02-24 17:29:00,
2013-02-24 12:32:00,48.7,-5.6,29.93,West,265,10.3,17.3,10,0.00,CLR,,0.00,WeatherDisplay:10.37,2013-02-24 17:32:00,
2013-02-24 12:33:00,49.1,-3.3,29.93,NNW,330,3.7,17.3,11,0.00,CLR,,0.00,WeatherDisplay:10.37,2013-02-24 17:33:00,
2013-02-24 12:34:00,49.6,-4.9,29.93,WSW,243,7.4,10.4,10,0.00,CLR,,0.00,WeatherDisplay:10.37,2013-02-24 17:34:00,
2013-02-24 12:38:00,49.9,-6.8,29.93,WNW,282,6.9,10.4,9,0.00,CLR,,0.00,WeatherDisplay:10.37,2013-02-24 17:38:00,
2013-02-24 12:39:00,50.0,-6.8,29.93,NW,323,9.1,13.8,9,0.00,CLR,,0.00,WeatherDisplay:10.37,2013-02-24 17:39:00,
2013-02-24 12:43:00,49.6,-7.1,29.93,NW,306,8.2,11.5,9,0.00,CLR,,0.00,WeatherDisplay:10.37,2013-02-24 17:43:00,
2013-02-24 12:44:00,49.7,-4.8,29.93,NW,312,9.5,18.4,10,0.00,CLR,,0.00,WeatherDisplay:10.37,2013-02-24 17:44:00,
2013-02-24 12:48:00,49.0,-9.9,29.93,NW,320,15.0,23.0,8,0.00,CLR,,0.00,WeatherDisplay:10.37,2013-02-24 17:48:00,
2013-02-24 12:49:00,49.4,-7.2,29.93,WNW,295,10.7,18.4,9,0.00,CLR,,0.00,WeatherDisplay:10.37,2013-02-24 17:49:00,
2013-02-24 12:50:00,49.6,-7.1,29.93,West,268,8.8,15.0,9,0.00,CLR,,0.00,WeatherDisplay:10.37,2013-02-24 17:50:00,
2013-02-24 12:53:00,49.1,-5.3,29.93,NW,326,12.9,18.4,10,0.00,CLR,,0.00,WeatherDisplay:10.37,2013-02-24 17:53:00,
2013-02-24 12:54:00,49.1,-5.3,29.93,NW,308,11.3,17.3,10,0.00,CLR,,0.00,WeatherDisplay:10.37,2013-02-24 17:54:00,
2013-02-24 12:55:00,49.3,-7.3,29.93,NW,311,9.5,17.3,9,0.00,CLR,,0.00,WeatherDisplay:10.37,2013-02-24 17:55:00,
2013-02-24 12:58:00,48.7,-10.2,29.93,NW,312,14.2,18.4,8,0.00,CLR,,0.00,WeatherDisplay:10.37,2013-02-24 17:58:00,
2013-02-24 12:59:00,48.6,-7.8,29.93,NW,323,14.1,19.6,9,0.00,CLR,,0.00,WeatherDisplay:10.37,2013-02-24 17:59:00,
2013-02-24 13:00:00,48.6,-7.8,29.93,NW,305,13.0,18.4,9,0.00,CLR,,0.00,WeatherDisplay:10.37,2013-02-24 18:00:00,
2013-02-24 13:03:00,49.6,-4.9,29.93,NNW,337,10.4,19.6,10,0.00,CLR,,0.00,WeatherDisplay:10.37,2013-02-24 18:03:00,
2013-02-24 13:04:00,49.4,-7.2,29.93,NNW,343,10.8,15.0,9,0.00,CLR,,0.00,WeatherDisplay:10.37,2013-02-24 18:04:00,
2013-02-24 13:05:00,49.8,-4.7,29.93,NW,312,9.8,13.8,10,0.00,CLR,,0.00,WeatherDisplay:10.37,2013-02-24 18:05:00,
2013-02-24 13:08:00,49.5,-9.5,29.93,NW,309,9.6,17.3,8,0.00,CLR,,0.00,WeatherDisplay:10.37,2013-02-24 18:08:00,
2013-02-24 13:09:00,49.5,-9.5,29.93,NW,325,14.5,16.1,8,0.00,CLR,,0.00,WeatherDisplay:10.37,2013-02-24 18:09:00,
2013-02-24 13:10:00,49.8,-6.9,29.93,NNW,328,9.7,20.7,9,0.00,CLR,,0.00,WeatherDisplay:10.37,2013-02-24 18:10:00,
2013-02-24 13:13:00,49.7,-7.0,29.93,NNW,336,10.8,18.4,9,0.00,CLR,,0.00,WeatherDisplay:10.37,2013-02-24 18:13:00,
2013-02-24 13:14:00,49.5,-7.1,29.92,West,272,11.5,13.8,9,0.00,CLR,,0.00,WeatherDisplay:10.37,2013-02-24 18:14:00,
2013-02-24 13:15:00,49.4,-9.6,29.93,WNW,294,12.2,18.5,8,0.00,CLR,,0.00,WeatherDisplay:10.37,2013-02-24 18:15:00,
2013-02-24 13:19:00,49.7,-4.8,29.92,WNW,289,6.5,11.7,10,0.00,CLR,,0.00,WeatherDisplay:10.37,2013-02-24 18:19:00,
2013-02-24 13:20:00,50.0,-9.2,29.92,NNW,339,12.4,16.1,8,0.00,CLR,,0.00,WeatherDisplay:10.37,2013-02-24 18:20:00,
2013-02-24 13:21:00,49.9,-9.2,29.92,WNW,288,10.9,19.6,8,0.00,CLR,,0.00,WeatherDisplay:10.37,2013-02-24 18:21:00,
2013-02-24 13:24:00,49.8,-9.3,29.92,WSW,248,11.4,16.1,8,0.00,CLR,,0.00,WeatherDisplay:10.37,2013-02-24 18:24:00,
2013-02-24 13:25:00,49.8,-12.0,29.92,WNW,299,11.2,20.8,7,0.00,CLR,,0.00,WeatherDisplay:10.37,2013-02-24 18:25:00,
2013-02-24 13:26:00,49.9,-6.8,29.92,NW,315,11.0,20.7,9,0.00,CLR,,0.00,WeatherDisplay:10.37,2013-02-24 18:26:00,
2013-02-24 13:29:00,49.9,-11.9,29.92,NW,311,11.5,18.4,7,0.00,CLR,,0.00,WeatherDisplay:10.37,2013-02-24 18:29:00,
2013-02-24 13:30:00,50.1,-9.1,29.92,WNW,292,7.5,13.8,8,0.00,CLR,,0.00,WeatherDisplay:10.37,2013-02-24 18:30:00,
2013-02-24 13:31:00,50.1,-11.8,29.92,WNW,298,10.4,15.0,7,0.00,CLR,,0.00,WeatherDisplay:10.37,2013-02-24 18:31:00,
2013-02-24 13:34:00,50.0,-11.9,29.92,West,265,11.1,17.3,7,0.00,CLR,,0.00,WeatherDisplay:10.37,2013-02-24 18:34:00,
2013-02-24 13:35:00,50.1,-11.8,29.92,WNW,298,11.4,15.5,7,0.00,CLR,,0.00,WeatherDisplay:10.37,2013-02-24 18:35:00,
2013-02-24 13:36:00,50.1,-14.9,29.92,WSW,256,11.8,16.1,6,0.00,CLR,,0.00,WeatherDisplay:10.37,2013-02-24 18:36:00,
2013-02-24 13:39:00,50.0,-11.9,29.92,WNW,292,11.0,13.8,7,0.00,CLR,,0.00,WeatherDisplay:10.37,2013-02-24 18:39:00,
2013-02-24 13:40:00,49.9,-11.9,29.92,NNW,344,12.9,17.3,7,0.00,CLR,,0.00,WeatherDisplay:10.37,2013-02-24 18:40:00,
2013-02-24 13:41:00,49.9,-11.9,29.92,NNW,339,10.4,17.3,7,0.00,CLR,,0.00,WeatherDisplay:10.37,2013-02-24 18:41:00,
2013-02-24 13:44:00,50.0,-11.9,29.92,NNW,328,13.4,17.3,7,0.00,CLR,,0.00,WeatherDisplay:10.37,2013-02-24 18:44:00,
2013-02-24 13:45:00,50.1,-11.8,29.92,NW,318,13.0,20.7,7,0.00,CLR,,0.00,WeatherDisplay:10.37,2013-02-24 18:45:00,
2013-02-24 13:46:00,49.9,-11.9,29.92,NW,319,12.2,19.6,7,0.00,CLR,,0.00,WeatherDisplay:10.37,2013-02-24 18:46:00,
2013-02-24 13:47:00,49.9,-11.9,29.92,NNW,346,10.1,15.0,7,0.00,CLR,,0.00,WeatherDisplay:10.37,2013-02-24 18:47:00,
2013-02-24 13:49:00,50.1,-11.8,29.92,NW,312,15.4,19.6,7,0.00,CLR,,0.00,WeatherDisplay:10.37,2013-02-24 18:49:00,
2013-02-24 13:50:00,50.3,-14.7,29.92,West,278,10.2,20.7,6,0.00,CLR,,0.00,WeatherDisplay:10.37,2013-02-24 18:50:00,
2013-02-24 13:51:00,50.0,-14.9,29.92,NW,319,11.6,17.3,6,0.00,CLR,,0.00,WeatherDisplay:10.37,2013-02-24 18:51:00,
2013-02-24 13:52:00,50.1,-14.9,29.92,NW,325,10.7,17.3,6,0.00,CLR,,0.00,WeatherDisplay:10.37,2013-02-24 18:52:00,
2013-02-24 13:55:00,50.0,-14.9,29.92,NW,319,10.7,17.3,6,0.00,CLR,,0.00,WeatherDisplay:10.37,2013-02-24 18:55:00,
2013-02-24 13:56:00,50.2,-11.7,29.92,WSW,251,10.8,18.4,7,0.00,CLR,,0.00,WeatherDisplay:10.37,2013-02-24 18:56:00,
2013-02-24 13:57:00,50.1,-11.8,29.92,West,264,6.9,12.7,7,0.00,CLR,,0.00,WeatherDisplay:10.37,2013-02-24 18:57:00,
2013-02-24 14:00:00,50.8,-14.4,29.92,NNW,328,9.8,12.7,6,0.00,CLR,,0.00,WeatherDisplay:10.37,2013-02-24 19:00:00,
2013-02-24 14:01:00,50.7,-14.4,29.92,NNW,337,10.8,14.6,6,0.00,CLR,,0.00,WeatherDisplay:10.37,2013-02-24 19:01:00,
2013-02-24 14:02:00,50.3,-14.7,29.92,NW,322,11.5,18.4,6,0.00,CLR,,0.00,WeatherDisplay:10.37,2013-02-24 19:02:00,
2013-02-24 14:05:00,50.1,-14.9,29.92,WNW,294,12.0,18.4,6,0.00,CLR,,0.00,WeatherDisplay:10.37,2013-02-24 19:05:00,
2013-02-24 14:06:00,50.2,-14.8,29.92,NNW,329,10.6,16.1,6,0.00,CLR,,0.00,WeatherDisplay:10.37,2013-02-24 19:06:00,
2013-02-24 14:07:00,50.0,-14.9,29.91,NW,318,10.8,15.0,6,0.00,CLR,,0.00,WeatherDisplay:10.37,2013-02-24 19:07:00,
2013-02-24 14:10:00,50.2,-11.7,29.92,NNW,343,11.8,19.6,7,0.00,CLR,,0.00,WeatherDisplay:10.37,2013-02-24 19:10:00,
2013-02-24 14:11:00,50.0,-14.9,29.92,NW,311,12.8,17.3,6,0.00,CLR,,0.00,WeatherDisplay:10.37,2013-02-24 19:11:00,
2013-02-24 14:12:00,50.0,-14.9,29.92,NW,312,10.5,17.3,6,0.00,CLR,,0.00,WeatherDisplay:10.37,2013-02-24 19:12:00,
2013-02-24 14:16:00,50.2,-14.8,29.92,WNW,296,8.9,12.7,6,0.00,CLR,,0.00,WeatherDisplay:10.37,2013-02-24 19:16:00,
2013-02-24 14:17:00,50.0,-14.9,29.92,NW,305,8.2,11.5,6,0.00,CLR,,0.00,WeatherDisplay:10.37,2013-02-24 19:17:00,
2013-02-24 14:21:00,50.2,-14.8,29.91,West,267,12.4,18.4,6,0.00,CLR,,0.00,WeatherDisplay:10.37,2013-02-24 19:21:00,
2013-02-24 14:22:00,50.1,-14.9,29.91,NW,312,12.6,16.1,6,0.00,CLR,,0.00,WeatherDisplay:10.37,2013-02-24 19:22:00,
2013-02-24 14:27:00,50.3,-11.6,29.91,WSW,256,6.4,12.7,7,0.00,CLR,,0.00,WeatherDisplay:10.37,2013-02-24 19:27:00,
2013-02-24 14:32:00,50.8,-14.4,29.92,West,272,13.4,22.3,6,0.00,CLR,,0.00,WeatherDisplay:10.37,2013-02-24 19:32:00,
2013-02-24 14:37:00,50.3,-14.7,29.91,NW,305,13.2,19.7,6,0.00,CLR,,0.00,WeatherDisplay:10.37,2013-02-24 19:37:00,
2013-02-24 14:42:00,50.4,-14.7,29.92,NNW,333,12.3,20.7,6,0.00,CLR,,0.00,WeatherDisplay:10.37,2013-02-24 19:42:00,
2013-02-24 14:43:00,50.3,-14.7,29.92,West,281,10.8,16.1,6,0.00,CLR,,0.00,WeatherDisplay:10.37,2013-02-24 19:43:00,
2013-02-24 14:47:00,50.2,-14.8,29.92,WNW,291,12.4,15.0,6,0.00,CLR,,0.00,WeatherDisplay:10.37,2013-02-24 19:47:00,
2013-02-24 14:48:00,50.6,-14.5,29.92,SW,229,7.3,16.1,6,0.00,CLR,,0.00,WeatherDisplay:10.37,2013-02-24 19:48:00,
2013-02-24 14:52:00,50.6,-14.5,29.92,WNW,289,13.1,19.6,6,0.00,CLR,,0.00,WeatherDisplay:10.37,2013-02-24 19:52:00,
2013-02-24 14:53:00,50.7,-14.4,29.92,NW,305,12.3,17.3,6,0.00,CLR,,0.00,WeatherDisplay:10.37,2013-02-24 19:53:00,
2013-02-24 14:57:00,50.9,-14.3,29.92,NNW,333,9.6,16.1,6,0.00,CLR,,0.00,WeatherDisplay:10.37,2013-02-24 19:57:00,
2013-02-24 14:58:00,51.2,-14.1,29.92,WNW,302,6.4,13.8,6,0.00,CLR,,0.00,WeatherDisplay:10.37,2013-02-24 19:58:00,
2013-02-24 15:02:00,51.7,-13.7,29.92,WNW,294,10.5,15.4,6,0.00,CLR,,0.00,WeatherDisplay:10.37,2013-02-24 20:02:00,
2013-02-24 15:03:00,50.5,-14.6,29.92,NW,318,11.1,15.0,6,0.00,CLR,,0.00,WeatherDisplay:10.37,2013-02-24 20:03:00,
2013-02-24 15:07:00,50.8,-14.4,29.92,NNW,347,10.1,20.7,6,0.00,CLR,,0.00,WeatherDisplay:10.37,2013-02-24 20:07:00,
2013-02-24 15:08:00,50.3,-14.7,29.92,WNW,294,10.6,16.5,6,0.00,CLR,,0.00,WeatherDisplay:10.37,2013-02-24 20:08:00,
2013-02-24 15:12:00,51.0,-14.2,29.92,WNW,299,7.9,15.0,6,0.00,CLR,,0.00,WeatherDisplay:10.37,2013-02-24 20:12:00,
2013-02-24 15:13:00,50.4,-14.7,29.92,NNW,337,8.9,13.8,6,0.00,CLR,,0.00,WeatherDisplay:10.37,2013-02-24 20:13:00,
2013-02-24 15:17:00,50.3,-14.7,29.92,NW,313,8.8,16.1,6,0.00,CLR,,0.00,WeatherDisplay:10.37,2013-02-24 20:17:00,
2013-02-24 15:18:00,51.1,-14.1,29.92,NW,309,8.7,11.5,6,0.00,CLR,,0.00,WeatherDisplay:10.37,2013-02-24 20:18:00,
2013-02-24 15:23:00,50.6,-18.1,29.92,WNW,298,7.5,15.0,5,0.00,CLR,,0.00,WeatherDisplay:10.37,2013-02-24 20:23:00,
2013-02-24 15:24:00,51.4,-17.5,29.93,West,265,5.5,10.4,5,0.00,CLR,,0.00,WeatherDisplay:10.37,2013-02-24 20:24:00,
2013-02-24 15:28:00,51.2,-17.7,29.93,WNW,301,9.7,15.0,5,0.00,CLR,,0.00,WeatherDisplay:10.37,2013-02-24 20:28:00,
2013-02-24 15:29:00,51.0,-17.8,29.93,NW,308,8.2,16.1,5,0.00,CLR,,0.00,WeatherDisplay:10.37,2013-02-24 20:29:00,
2013-02-24 15:33:00,51.2,-17.7,29.93,WNW,288,8.8,15.7,5,0.00,CLR,,0.00,WeatherDisplay:10.37,2013-02-24 20:33:00,
2013-02-24 15:34:00,51.6,-17.4,29.93,WNW,284,10.5,16.1,5,0.00,CLR,,0.00,WeatherDisplay:10.37,2013-02-24 20:34:00,
2013-02-24 15:38:00,50.9,-17.9,29.93,WNW,296,11.3,17.3,5,0.00,CLR,,0.00,WeatherDisplay:10.37,2013-02-24 20:38:00,
2013-02-24 15:39:00,51.9,-17.1,29.93,WNW,291,10.5,15.0,5,0.00,CLR,,0.00,WeatherDisplay:10.37,2013-02-24 20:39:00,
2013-02-24 15:43:00,51.1,-14.1,29.93,NW,325,11.8,19.6,6,0.00,CLR,,0.00,WeatherDisplay:10.37,2013-02-24 20:43:00,
2013-02-24 15:44:00,50.6,-18.1,29.93,NW,322,10.7,18.4,5,0.00,CLR,,0.00,WeatherDisplay:10.37,2013-02-24 20:44:00,
2013-02-24 15:49:00,51.2,-17.7,29.93,NW,313,10.1,15.7,5,0.00,CLR,,0.00,WeatherDisplay:10.37,2013-02-24 20:49:00,
2013-02-24 15:50:00,51.3,-17.6,29.93,NW,320,9.8,16.1,5,0.00,CLR,,0.00,WeatherDisplay:10.37,2013-02-24 20:50:00,
2013-02-24 15:54:00,51.1,-17.7,29.93,North,360,10.8,17.3,5,0.00,CLR,,0.00,WeatherDisplay:10.37,2013-02-24 20:54:00,
2013-02-24 15:55:00,51.4,-17.5,29.93,NNW,344,7.6,11.5,5,0.00,CLR,,0.00,WeatherDisplay:10.37,2013-02-24 20:55:00,
2013-02-24 15:59:00,51.7,-17.3,29.94,WNW,289,7.8,22.3,5,0.00,CLR,,0.00,WeatherDisplay:10.37,2013-02-24 20:59:00,
2013-02-24 16:00:00,51.0,-17.8,29.94,NNW,337,15.1,21.9,5,0.00,CLR,,0.00,WeatherDisplay:10.37,2013-02-24 21:00:00,
2013-02-24 16:01:00,51.0,-17.8,29.94,NNW,332,11.6,19.6,5,0.00,CLR,,0.00,WeatherDisplay:10.37,2013-02-24 21:01:00,
2013-02-24 16:04:00,50.8,-17.9,29.93,NW,319,8.5,13.8,5,0.00,CLR,,0.00,WeatherDisplay:10.37,2013-02-24 21:04:00,
2013-02-24 16:05:00,51.2,-17.7,29.93,NW,308,7.4,11.5,5,0.00,CLR,,0.00,WeatherDisplay:10.37,2013-02-24 21:05:00,
2013-02-24 16:06:00,52.3,-16.9,29.94,NW,304,8.8,12.7,5,0.00,CLR,,0.00,WeatherDisplay:10.37,2013-02-24 21:06:00,
2013-02-24 16:09:00,50.7,-14.4,29.93,NW,318,12.0,12.7,6,0.00,CLR,,0.00,WeatherDisplay:10.37,2013-02-24 21:09:00,
2013-02-24 16:10:00,50.8,-17.9,29.94,NW,318,10.5,16.1,5,0.00,CLR,,0.00,WeatherDisplay:10.37,2013-02-24 21:10:00,
2013-02-24 16:11:00,51.5,-17.4,29.93,NW,313,9.5,12.7,5,0.00,CLR,,0.00,WeatherDisplay:10.37,2013-02-24 21:11:00,
2013-02-24 16:14:00,51.0,-17.8,29.94,WSW,248,10.3,14.5,5,0.00,CLR,,0.00,WeatherDisplay:10.37,2013-02-24 21:14:00,
2013-02-24 16:15:00,51.1,-17.7,29.94,West,270,14.7,18.4,5,0.00,CLR,,0.00,WeatherDisplay:10.37,2013-02-24 21:15:00,
2013-02-24 16:16:00,50.6,-18.1,29.94,NNW,328,13.2,25.3,5,0.00,CLR,,0.00,WeatherDisplay:10.37,2013-02-24 21:16:00,
2013-02-24 16:19:00,50.9,-17.9,29.94,WNW,287,9.4,16.1,5,0.00,CLR,,0.00,WeatherDisplay:10.37,2013-02-24 21:19:00,
2013-02-24 16:20:00,51.6,-17.4,29.94,WNW,298,8.2,12.7,5,0.00,CLR,,0.00,WeatherDisplay:10.37,2013-02-24 21:20:00,
2013-02-24 16:21:00,51.0,-17.8,29.94,WNW,291,9.6,16.1,5,0.00,CLR,,0.00,WeatherDisplay:10.37,2013-02-24 21:21:00,
2013-02-24 16:24:00,50.5,-14.6,29.94,WNW,302,11.3,18.4,6,0.00,CLR,,0.00,WeatherDisplay:10.37,2013-02-24 21:24:00,
2013-02-24 16:25:00,51.2,-17.7,29.94,NNW,332,11.1,18.4,5,0.00,CLR,,0.00,WeatherDisplay:10.37,2013-02-24 21:25:00,
2013-02-24 16:26:00,50.4,-18.2,29.94,West,272,11.4,13.8,5,0.00,CLR,,0.00,WeatherDisplay:10.37,2013-02-24 21:26:00,
2013-02-24 16:30:00,50.7,-18.0,29.93,WNW,288,12.1,17.3,5,0.00,CLR,,0.00,WeatherDisplay:10.37,2013-02-24 21:30:00,
2013-02-24 16:31:00,51.3,-14.0,29.93,NW,313,8.9,12.7,6,0.00,CLR,,0.00,WeatherDisplay:10.37,2013-02-24 21:31:00,
2013-02-24 16:35:00,51.1,-14.1,29.93,North,356,6.5,13.8,6,0.00,CLR,,0.00,WeatherDisplay:10.37,2013-02-24 21:35:00,
2013-02-24 16:36:00,51.3,-17.6,29.93,NW,320,9.0,10.2,5,0.00,CLR,,0.00,WeatherDisplay:10.37,2013-02-24 21:36:00,
2013-02-24 16:40:00,51.6,-13.8,29.94,NNW,336,6.2,11.5,6,0.00,CLR,,0.00,WeatherDisplay:10.37,2013-02-24 21:40:00,
2013-02-24 16:41:00,51.3,-17.6,29.93,WNW,294,10.2,11.5,5,0.00,CLR,,0.00,WeatherDisplay:10.37,2013-02-24 21:41:00,
2013-02-24 16:45:00,51.5,-13.8,29.94,NW,318,8.3,11.5,6,0.00,CLR,,0.00,WeatherDisplay:10.37,2013-02-24 21:45:00,
2013-02-24 16:46:00,51.0,-14.2,29.94,WNW,285,10.9,12.7,6,0.00,CLR,,0.00,WeatherDisplay:10.37,2013-02-24 21:46:00,
2013-02-24 16:47:00,50.6,-14.5,29.94,NW,326,11.1,16.1,6,0.00,CLR,,0.00,WeatherDisplay:10.37,2013-02-24 21:47:00,
2013-02-24 16:50:00,50.9,-14.3,29.94,North,357,10.0,15.0,6,0.00,CLR,,0.00,WeatherDisplay:10.37,2013-02-24 21:50:00,
2013-02-24 16:51:00,51.1,-14.1,29.93,North,349,12.4,16.1,6,0.00,CLR,,0.00,WeatherDisplay:10.37,2013-02-24 21:51:00,
2013-02-24 16:52:00,50.6,-14.5,29.94,SW,216,7.8,17.3,6,0.00,CLR,,0.00,WeatherDisplay:10.37,2013-02-24 21:52:00,
2013-02-24 16:55:00,51.1,-14.1,29.94,WNW,302,11.4,16.1,6,0.00,CLR,,0.00,WeatherDisplay:10.37,2013-02-24 21:55:00,
2013-02-24 16:56:00,50.6,-14.5,29.94,West,275,11.6,16.1,6,0.00,CLR,,0.00,WeatherDisplay:10.37,2013-02-24 21:56:00,
2013-02-24 16:58:00,50.6,-14.5,29.94,WNW,287,9.2,15.0,6,0.00,CLR,,0.00,WeatherDisplay:10.37,2013-02-24 21:58:00,
2013-02-24 17:01:00,50.5,-14.6,29.94,WNW,294,12.7,20.7,6,0.00,CLR,,0.00,WeatherDisplay:10.37,2013-02-24 22:01:00,
2013-02-24 17:03:00,50.5,-14.6,29.94,West,274,11.9,15.0,6,0.00,CLR,,0.00,WeatherDisplay:10.37,2013-02-24 22:03:00,
2013-02-24 17:06:00,50.5,-14.6,29.94,West,280,11.1,16.1,6,0.00,CLR,,0.00,WeatherDisplay:10.37,2013-02-24 22:06:00,
2013-02-24 17:08:00,50.3,-14.7,29.94,West,260,10.2,13.8,6,0.00,CLR,,0.00,WeatherDisplay:10.37,2013-02-24 22:08:00,
2013-02-24 17:11:00,50.5,-14.6,29.94,NW,319,9.0,17.3,6,0.00,CLR,,0.00,WeatherDisplay:10.37,2013-02-24 22:11:00,
2013-02-24 17:13:00,50.6,-14.5,29.95,West,274,5.8,11.7,6,0.00,CLR,,0.00,WeatherDisplay:10.37,2013-02-24 22:13:00,
2013-02-24 17:16:00,50.8,-14.4,29.95,WNW,282,10.4,16.1,6,0.00,CLR,,0.00,WeatherDisplay:10.37,2013-02-24 22:16:00,
2013-02-24 17:17:00,50.7,-14.4,29.95,North,8,8.8,12.7,6,0.00,CLR,,0.00,WeatherDisplay:10.37,2013-02-24 22:17:00,
2013-02-24 17:18:00,50.5,-14.6,29.95,WSW,258,8.2,12.7,6,0.00,CLR,,0.00,WeatherDisplay:10.37,2013-02-24 22:18:00,
2013-02-24 17:21:00,50.4,-14.7,29.95,WNW,291,7.4,12.7,6,0.00,CLR,,0.00,WeatherDisplay:10.37,2013-02-24 22:21:00,
2013-02-24 17:22:00,50.2,-14.8,29.95,NW,316,10.6,15.0,6,0.00,CLR,,0.00,WeatherDisplay:10.37,2013-02-24 22:22:00,
2013-02-24 17:23:00,50.2,-14.8,29.95,NNW,337,9.1,15.0,6,0.00,CLR,,0.00,WeatherDisplay:10.37,2013-02-24 22:23:00,
2013-02-24 17:26:00,50.3,-14.7,29.95,NW,325,8.1,17.3,6,0.00,CLR,,0.00,WeatherDisplay:10.37,2013-02-24 22:26:00,
2013-02-24 17:27:00,50.2,-14.8,29.95,NW,304,9.6,13.8,6,0.00,CLR,,0.00,WeatherDisplay:10.37,2013-02-24 22:27:00,
2013-02-24 17:28:00,50.1,-14.9,29.95,NW,325,10.1,16.1,6,0.00,CLR,,0.00,WeatherDisplay:10.37,2013-02-24 22:28:00,
2013-02-24 17:31:00,49.8,-15.1,29.95,NNW,337,13.0,17.1,6,0.00,CLR,,0.00,WeatherDisplay:10.37,2013-02-24 22:31:00,
2013-02-24 17:32:00,50.0,-14.9,29.95,WNW,284,11.9,18.4,6,0.00,CLR,,0.00,WeatherDisplay:10.37,2013-02-24 22:32:00,
2013-02-24 17:33:00,50.0,-14.9,29.95,WNW,299,11.0,15.0,6,0.00,CLR,,0.00,WeatherDisplay:10.37,2013-02-24 22:33:00,
2013-02-24 17:36:00,49.9,-15.0,29.96,WNW,285,7.1,13.8,6,0.00,CLR,,0.00,WeatherDisplay:10.37,2013-02-24 22:36:00,
2013-02-24 17:37:00,49.9,-15.0,29.96,North,353,7.5,11.5,6,0.00,CLR,,0.00,WeatherDisplay:10.37,2013-02-24 22:37:00,
2013-02-24 17:38:00,49.8,-15.1,29.96,NNW,344,9.1,12.7,6,0.00,CLR,,0.00,WeatherDisplay:10.37,2013-02-24 22:38:00,
2013-02-24 17:41:00,49.9,-15.0,29.96,NNW,330,8.3,12.7,6,0.00,CLR,,0.00,WeatherDisplay:10.37,2013-02-24 22:41:00,
2013-02-24 17:42:00,49.9,-15.0,29.96,WNW,285,8.2,11.5,6,0.00,CLR,,0.00,WeatherDisplay:10.37,2013-02-24 22:42:00,
2013-02-24 17:43:00,49.9,-15.0,29.96,NNW,328,8.5,12.7,6,0.00,CLR,,0.00,WeatherDisplay:10.37,2013-02-24 22:43:00,
2013-02-24 17:46:00,49.7,-15.2,29.96,NW,319,11.0,16.2,6,0.00,CLR,,0.00,WeatherDisplay:10.37,2013-02-24 22:46:00,
2013-02-24 17:47:00,49.7,-15.2,29.96,NNW,333,12.9,19.6,6,0.00,CLR,,0.00,WeatherDisplay:10.37,2013-02-24 22:47:00,
2013-02-24 17:48:00,49.7,-15.2,29.96,NNW,346,9.9,19.6,6,0.00,CLR,,0.00,WeatherDisplay:10.37,2013-02-24 22:48:00,
2013-02-24 17:51:00,49.6,-15.2,29.96,NNW,330,7.4,18.4,6,0.00,CLR,,0.00,WeatherDisplay:10.37,2013-02-24 22:51:00,
2013-02-24 17:52:00,49.2,-15.5,29.96,NW,319,6.9,13.8,6,0.00,CLR,,0.00,WeatherDisplay:10.37,2013-02-24 22:52:00,
2013-02-24 17:53:00,49.8,-15.1,29.96,WNW,294,10.3,15.0,6,0.00,CLR,,0.00,WeatherDisplay:10.37,2013-02-24 22:53:00,
2013-02-24 17:57:00,49.5,-15.3,29.96,NW,308,6.1,11.5,6,0.00,CLR,,0.00,WeatherDisplay:10.37,2013-02-24 22:57:00,
2013-02-24 17:58:00,48.9,-15.8,29.96,NW,325,9.6,12.7,6,0.00,CLR,,0.00,WeatherDisplay:10.37,2013-02-24 22:58:00,
2013-02-24 17:59:00,48.6,-16.0,29.96,NW,311,11.2,15.0,6,0.00,CLR,,0.00,WeatherDisplay:10.37,2013-02-24 22:59:00,
2013-02-24 18:02:00,48.7,-15.9,29.97,WNW,301,6.8,11.5,6,0.00,CLR,,0.00,WeatherDisplay:10.37,2013-02-24 23:02:00,
2013-02-24 18:03:00,48.8,-15.8,29.96,NW,312,9.5,11.5,6,0.00,CLR,,0.00,WeatherDisplay:10.37,2013-02-24 23:03:00,
2013-02-24 18:04:00,48.9,-15.8,29.96,NW,315,9.9,11.5,6,0.00,CLR,,0.00,WeatherDisplay:10.37,2013-02-24 23:04:00,
2013-02-24 18:07:00,48.6,-16.0,29.97,NW,319,10.4,16.1,6,0.00,CLR,,0.00,WeatherDisplay:10.37,2013-02-24 23:07:00,
2013-02-24 18:08:00,48.7,-15.9,29.97,WNW,295,9.1,13.8,6,0.00,CLR,,0.00,WeatherDisplay:10.37,2013-02-24 23:08:00,
2013-02-24 18:09:00,48.6,-16.0,29.97,NW,311,8.3,17.3,6,0.00,CLR,,0.00,WeatherDisplay:10.37,2013-02-24 23:09:00,
2013-02-24 18:12:00,48.7,-15.9,29.97,West,275,9.9,13.8,6,0.00,CLR,,0.00,WeatherDisplay:10.37,2013-02-24 23:12:00,
2013-02-24 18:13:00,48.6,-16.0,29.97,NNW,339,9.4,12.7,6,0.00,CLR,,0.00,WeatherDisplay:10.37,2013-02-24 23:13:00,
2013-02-24 18:14:00,48.5,-16.0,29.97,NW,305,7.5,15.0,6,0.00,CLR,,0.00,WeatherDisplay:10.37,2013-02-24 23:14:00,
2013-02-24 18:17:00,48.5,-16.0,29.97,NW,311,8.0,12.7,6,0.00,CLR,,0.00,WeatherDisplay:10.37,2013-02-24 23:17:00,
2013-02-24 18:18:00,48.5,-13.0,29.97,NNW,343,6.0,10.4,7,0.00,CLR,,0.00,WeatherDisplay:10.37,2013-02-24 23:18:00,
2013-02-24 18:19:00,48.6,-12.9,29.97,NW,308,6.4,11.5,7,0.00,CLR,,0.00,WeatherDisplay:10.37,2013-02-24 23:19:00,
2013-02-24 18:22:00,48.5,-13.0,29.98,NW,304,9.2,12.1,7,0.00,CLR,,0.00,WeatherDisplay:10.37,2013-02-24 23:22:00,
2013-02-24 18:23:00,48.5,-13.0,29.98,NNW,330,6.8,12.7,7,0.00,CLR,,0.00,WeatherDisplay:10.37,2013-02-24 23:23:00,
2013-02-24 18:24:00,48.5,-13.0,29.98,NNW,328,6.2,9.2,7,0.00,CLR,,0.00,WeatherDisplay:10.37,2013-02-24 23:24:00,
2013-02-24 18:27:00,48.5,-13.0,29.98,WNW,299,7.7,11.5,7,0.00,CLR,,0.00,WeatherDisplay:10.37,2013-02-24 23:27:00,
2013-02-24 18:28:00,48.5,-13.0,29.98,NW,312,5.6,10.4,7,0.00,CLR,,0.00,WeatherDisplay:10.37,2013-02-24 23:28:00,
2013-02-24 18:29:00,48.5,-13.0,29.98,NW,305,2.4,8.1,7,0.00,CLR,,0.00,WeatherDisplay:10.37,2013-02-24 23:29:00,
2013-02-24 18:32:00,48.5,-13.0,29.98,WNW,302,2.1,6.9,7,0.00,CLR,,0.00,WeatherDisplay:10.37,2013-02-24 23:32:00,
2013-02-24 18:33:00,48.5,-13.0,29.98,WNW,284,3.1,6.9,7,0.00,CLR,,0.00,WeatherDisplay:10.37,2013-02-24 23:33:00,
2013-02-24 18:35:00,48.2,-13.2,29.98,NW,306,4.4,9.2,7,0.00,CLR,,0.00,WeatherDisplay:10.37,2013-02-24 23:35:00,
2013-02-24 18:37:00,48.4,-13.1,29.98,NNW,343,7.2,11.5,7,0.00,CLR,,0.00,WeatherDisplay:10.37,2013-02-24 23:37:00,
2013-02-24 18:38:00,48.1,-13.3,29.98,West,278,2.2,11.5,7,0.00,CLR,,0.00,WeatherDisplay:10.37,2013-02-24 23:38:00,
2013-02-24 18:40:00,48.4,-13.1,29.99,NW,312,3.2,8.1,7,0.00,CLR,,0.00,WeatherDisplay:10.37,2013-02-24 23:40:00,
2013-02-24 18:43:00,48.0,-13.4,29.99,NNW,328,4.8,6.9,7,0.00,CLR,,0.00,WeatherDisplay:10.37,2013-02-24 23:43:00,
2013-02-24 18:44:00,47.9,-10.8,29.99,NW,305,1.7,6.9,8,0.00,CLR,,0.00,WeatherDisplay:10.37,2013-02-24 23:44:00,
2013-02-24 18:45:00,47.9,-10.8,29.99,NW,320,0.0,5.8,8,0.00,CLR,,0.00,WeatherDisplay:10.37,2013-02-24 23:45:00,
2013-02-24 18:48:00,47.7,-10.9,29.99,WNW,282,0.4,4.6,8,0.00,CLR,,0.00,WeatherDisplay:10.37,2013-02-24 23:48:00,
2013-02-24 18:49:00,47.6,-11.0,29.99,WNW,282,0.0,0.0,8,0.00,CLR,,0.00,WeatherDisplay:10.37,2013-02-24 23:49:00,
2013-02-24 18:51:00,47.5,-11.1,29.99,NNW,329,3.2,5.8,8,0.00,CLR,,0.00,WeatherDisplay:10.37,2013-02-24 23:51:00,
2013-02-24 18:53:00,47.6,-11.0,29.99,WNW,302,5.3,9.2,8,0.00,CLR,,0.00,WeatherDisplay:10.37,2013-02-24 23:53:00,
2013-02-24 18:54:00,47.5,-11.1,29.99,WNW,294,6.6,9.2,8,0.00,CLR,,0.00,WeatherDisplay:10.37,2013-02-24 23:54:00,
2013-02-24 18:56:00,47.6,-11.0,30.00,NW,305,6.6,8.1,8,0.00,CLR,,0.00,WeatherDisplay:10.37,2013-02-24 23:56:00,
2013-02-24 18:58:00,47.5,-11.1,30.00,West,281,5.2,10.4,8,0.00,CLR,,0.00,WeatherDisplay:10.37,2013-02-24 23:58:00,
2013-02-24 18:59:00,47.5,-11.1,30.00,NW,309,5.7,8.1,8,0.00,CLR,,0.00,WeatherDisplay:10.37,2013-02-24 23:59:00,
2013-02-24 19:01:00,47.5,-11.1,30.00,WNW,289,3.3,9.2,8,0.00,CLR,,0.00,WeatherDisplay:10.37,2013-02-25 00:01:00,
2013-02-24 19:04:00,47.5,-11.1,30.00,NW,306,3.5,6.9,8,0.00,CLR,,0.00,WeatherDisplay:10.37,2013-02-25 00:04:00,
2013-02-24 19:06:00,47.2,-11.3,30.00,WNW,295,2.5,8.1,8,0.00,CLR,,0.00,WeatherDisplay:10.37,2013-02-25 00:06:00,
2013-02-24 19:09:00,47.3,-11.2,30.00,NNW,335,4.1,9.2,8,0.00,CLR,,0.00,WeatherDisplay:10.37,2013-02-25 00:09:00,
2013-02-24 19:12:00,47.4,-11.1,30.00,NW,304,4.4,10.4,8,0.00,CLR,,0.00,WeatherDisplay:10.37,2013-02-25 00:12:00,
2013-02-24 19:14:00,47.1,-11.4,30.00,WNW,295,8.1,11.5,8,0.00,CLR,,0.00,WeatherDisplay:10.37,2013-02-25 00:14:00,
2013-02-24 19:17:00,47.1,-14.0,30.00,West,261,8.5,12.7,7,0.00,CLR,,0.00,WeatherDisplay:10.37,2013-02-25 00:17:00,
2013-02-24 19:19:00,47.2,-11.3,30.00,WNW,301,4.7,10.4,8,0.00,CLR,,0.00,WeatherDisplay:10.37,2013-02-25 00:19:00,
2013-02-24 19:20:00,47.1,-11.4,30.00,WNW,302,5.7,16.1,8,0.00,CLR,,0.00,WeatherDisplay:10.37,2013-02-25 00:20:00,
2013-02-24 19:22:00,47.3,-11.2,30.00,NW,311,7.0,11.5,8,0.00,CLR,,0.00,WeatherDisplay:10.37,2013-02-25 00:22:00,
2013-02-24 19:24:00,47.2,-11.3,30.00,NNW,330,5.5,7.0,8,0.00,CLR,,0.00,WeatherDisplay:10.37,2013-02-25 00:24:00,
2013-02-24 19:25:00,46.8,-11.6,30.00,NNW,329,5.8,9.0,8,0.00,CLR,,0.00,WeatherDisplay:10.37,2013-02-25 00:25:00,
2013-02-24 19:27:00,47.2,-11.3,30.01,NW,313,2.6,8.1,8,0.00,CLR,,0.00,WeatherDisplay:10.37,2013-02-25 00:27:00,
2013-02-24 19:29:00,47.0,-11.4,30.01,WNW,284,5.2,9.2,8,0.00,CLR,,0.00,WeatherDisplay:10.37,2013-02-25 00:29:00,
2013-02-24 19:30:00,46.9,-11.5,30.01,WNW,291,8.0,11.5,8,0.00,CLR,,0.00,WeatherDisplay:10.37,2013-02-25 00:30:00,
2013-02-24 19:32:00,47.0,-14.1,30.01,West,281,8.0,16.1,7,0.00,CLR,,0.00,WeatherDisplay:10.37,2013-02-25 00:32:00,
2013-02-24 19:35:00,47.0,-11.4,30.01,WNW,284,6.2,9.2,8,0.00,CLR,,0.00,WeatherDisplay:10.37,2013-02-25 00:35:00,
2013-02-24 19:37:00,47.2,-11.3,30.01,WNW,294,9.8,16.1,8,0.00,CLR,,0.00,WeatherDisplay:10.37,2013-02-25 00:37:00,
2013-02-24 19:40:00,47.3,-11.2,30.01,NW,304,9.1,16.1,8,0.00,CLR,,0.00,WeatherDisplay:10.37,2013-02-25 00:40:00,
2013-02-24 19:42:00,47.0,-11.4,30.01,WNW,298,7.0,10.4,8,0.00,CLR,,0.00,WeatherDisplay:10.37,2013-02-25 00:42:00,
2013-02-24 19:45:00,47.2,-11.3,30.02,NW,319,4.9,9.0,8,0.00,CLR,,0.00,WeatherDisplay:10.37,2013-02-25 00:45:00,
2013-02-24 19:47:00,46.8,-11.6,30.02,NNW,346,5.3,9.2,8,0.00,CLR,,0.00,WeatherDisplay:10.37,2013-02-25 00:47:00,
2013-02-24 19:50:00,46.9,-9.1,30.02,NW,312,1.8,6.9,9,0.00,CLR,,0.00,WeatherDisplay:10.37,2013-02-25 00:50:00,
2013-02-24 19:53:00,46.8,-9.2,30.02,WNW,294,6.9,10.4,9,0.00,CLR,,0.00,WeatherDisplay:10.37,2013-02-25 00:53:00,
2013-02-24 19:55:00,46.4,-9.5,30.02,NNW,332,7.0,8.1,9,0.00,CLR,,0.00,WeatherDisplay:10.37,2013-02-25 00:55:00,
2013-02-24 19:56:00,46.6,-9.4,30.02,NW,306,8.6,12.7,9,0.00,CLR,,0.00,WeatherDisplay:10.37,2013-02-25 00:56:00,
2013-02-24 19:58:00,46.5,-9.4,30.02,NW,304,4.3,8.5,9,0.00,CLR,,0.00,WeatherDisplay:10.37,2013-02-25 00:58:00,
2013-02-24 20:00:00,46.4,-9.5,30.02,NW,309,7.0,10.0,9,0.00,CLR,,0.00,WeatherDisplay:10.37,2013-02-25 01:00:00,
2013-02-24 20:01:00,46.5,-9.4,30.02,NNW,346,8.6,13.8,9,0.00,CLR,,0.00,WeatherDisplay:10.37,2013-02-25 01:01:00,
2013-02-24 20:03:00,46.3,-9.6,30.02,NNW,337,4.4,6.9,9,0.00,CLR,,0.00,WeatherDisplay:10.37,2013-02-25 01:03:00,
2013-02-24 20:06:00,46.2,-7.5,30.02,NW,323,4.6,11.1,10,0.00,CLR,,0.00,WeatherDisplay:10.37,2013-02-25 01:06:00,
2013-02-24 20:08:00,46.2,-7.5,30.02,WSW,240,6.0,10.4,10,0.00,CLR,,0.00,WeatherDisplay:10.37,2013-02-25 01:08:00,
2013-02-24 20:11:00,46.2,-9.7,30.03,WSW,246,6.5,10.4,9,0.00,CLR,,0.00,WeatherDisplay:10.37,2013-02-25 01:11:00,
2013-02-24 20:12:00,46.1,-9.7,30.03,WNW,295,7.8,10.4,9,0.00,CLR,,0.00,WeatherDisplay:10.37,2013-02-25 01:12:00,
2013-02-24 20:13:00,46.1,-9.7,30.03,NNW,337,7.7,12.7,9,0.00,CLR,,0.00,WeatherDisplay:10.37,2013-02-25 01:13:00,
2013-02-24 20:16:00,46.1,-7.6,30.03,NNW,333,4.7,5.8,10,0.00,CLR,,0.00,WeatherDisplay:10.37,2013-02-25 01:16:00,
2013-02-24 20:17:00,45.9,-7.7,30.03,WNW,284,4.8,6.9,10,0.00,CLR,,0.00,WeatherDisplay:10.37,2013-02-25 01:17:00,
2013-02-24 20:18:00,46.0,-7.7,30.03,NNW,329,7.3,10.4,10,0.00,CLR,,0.00,WeatherDisplay:10.37,2013-02-25 01:18:00,
2013-02-24 20:21:00,45.9,-7.7,30.03,West,281,5.2,11.5,10,0.00,CLR,,0.00,WeatherDisplay:10.37,2013-02-25 01:21:00,
2013-02-24 20:22:00,45.8,-7.8,30.03,NW,312,5.7,8.1,10,0.00,CLR,,0.00,WeatherDisplay:10.37,2013-02-25 01:22:00,
2013-02-24 20:24:00,45.8,-7.8,30.03,NNW,329,7.7,11.5,10,0.00,CLR,,0.00,WeatherDisplay:10.37,2013-02-25 01:24:00,
2013-02-24 20:26:00,46.1,-7.6,30.03,WNW,288,3.0,8.1,10,0.00,CLR,,0.00,WeatherDisplay:10.37,2013-02-25 01:26:00,
2013-02-24 20:27:00,46.1,-7.6,30.03,WNW,288,1.3,8.1,10,0.00,CLR,,0.00,WeatherDisplay:10.37,2013-02-25 01:27:00,
2013-02-24 20:28:00,45.6,-8.0,30.03,WNW,301,3.0,7.1,10,0.00,CLR,,0.00,WeatherDisplay:10.37,2013-02-25 01:28:00,
2013-02-24 20:29:00,45.8,-7.8,30.03,NW,316,6.0,8.1,10,0.00,CLR,,0.00,WeatherDisplay:10.37,2013-02-25 01:29:00,
2013-02-24 20:32:00,45.6,-6.0,30.04,WNW,302,2.8,5.8,11,0.00,CLR,,0.00,WeatherDisplay:10.37,2013-02-25 01:32:00,
2013-02-24 20:33:00,45.6,-6.0,30.04,NNW,333,3.4,4.6,11,0.00,CLR,,0.00,WeatherDisplay:10.37,2013-02-25 01:33:00,
2013-02-24 20:34:00,45.2,-6.3,30.04,NW,305,1.1,6.3,11,0.00,CLR,,0.00,WeatherDisplay:10.37,2013-02-25 01:34:00,
2013-02-24 20:37:00,45.3,-6.2,30.04,NNW,330,0.0,0.0,11,0.00,CLR,,0.00,WeatherDisplay:10.37,2013-02-25 01:37:00,
2013-02-24 20:38:00,45.0,-6.5,30.04,NNW,337,2.7,5.3,11,0.00,CLR,,0.00,WeatherDisplay:10.37,2013-02-25 01:38:00,
2013-02-24 20:39:00,45.3,-6.2,30.04,NW,312,3.8,8.1,11,0.00,CLR,,0.00,WeatherDisplay:10.37,2013-02-25 01:39:00,
2013-02-24 20:42:00,45.3,-6.2,30.04,NW,313,0.0,0.0,11,0.00,CLR,,0.00,WeatherDisplay:10.37,2013-02-25 01:42:00,
2013-02-24 20:43:00,44.9,-6.6,30.04,NNW,339,5.3,6.2,11,0.00,CLR,,0.00,WeatherDisplay:10.37,2013-02-25 01:43:00,
2013-02-24 20:44:00,44.9,-6.6,30.04,NNW,347,4.0,9.2,11,0.00,CLR,,0.00,WeatherDisplay:10.37,2013-02-25 01:44:00,
2013-02-24 20:47:00,45.1,-4.6,30.04,NNW,344,1.9,4.6,12,0.00,CLR,,0.00,WeatherDisplay:10.37,2013-02-25 01:47:00,
2013-02-24 20:48:00,44.6,-5.0,30.04,NNW,344,0.0,0.0,12,0.00,CLR,,0.00,WeatherDisplay:10.37,2013-02-25 01:48:00,
2013-02-24 20:49:00,44.8,-4.8,30.04,NNW,344,0.0,0.0,12,0.00,CLR,,0.00,WeatherDisplay:10.37,2013-02-25 01:49:00,
2013-02-24 20:52:00,44.5,-5.1,30.04,NW,326,0.9,4.6,12,0.00,CLR,,0.00,WeatherDisplay:10.37,2013-02-25 01:52:00,
2013-02-24 20:53:00,44.6,-5.0,30.04,NW,326,0.0,0.0,12,0.00,CLR,,0.00,WeatherDisplay:10.37,2013-02-25 01:53:00,
2013-02-24 20:54:00,44.5,-3.4,30.04,NW,326,0.0,0.0,13,0.00,CLR,,0.00,WeatherDisplay:10.37,2013-02-25 01:54:00,
2013-02-24 20:57:00,44.5,-5.1,30.04,NW,320,3.0,5.8,12,0.00,CLR,,0.00,WeatherDisplay:10.37,2013-02-25 01:57:00,
2013-02-24 20:59:00,44.3,-5.2,30.05,NW,320,0.2,2.3,12,0.00,CLR,,0.00,WeatherDisplay:10.37,2013-02-25 01:59:00,
2013-02-24 21:02:00,44.1,-3.7,30.04,NW,311,4.7,6.9,13,0.00,CLR,,0.00,WeatherDisplay:10.37,2013-02-25 02:02:00,
2013-02-24 21:04:00,43.8,-4.0,30.04,NNW,328,0.0,0.0,13,0.00,CLR,,0.00,WeatherDisplay:10.37,2013-02-25 02:04:00,
2013-02-24 21:07:00,43.7,-4.0,30.05,NNW,328,0.0,0.0,13,0.00,CLR,,0.00,WeatherDisplay:10.37,2013-02-25 02:07:00,
2013-02-24 21:09:00,43.6,-4.1,30.05,NNW,347,3.3,8.1,13,0.00,CLR,,0.00,WeatherDisplay:10.37,2013-02-25 02:09:00,
2013-02-24 21:10:00,43.7,-4.0,30.05,NNW,335,4.0,8.1,13,0.00,CLR,,0.00,WeatherDisplay:10.37,2013-02-25 02:10:00,
2013-02-24 21:12:00,43.5,-4.2,30.05,NNW,335,0.0,0.0,13,0.00,CLR,,0.00,WeatherDisplay:10.37,2013-02-25 02:12:00,
2013-02-24 21:13:00,43.4,-4.3,30.05,North,352,3.3,6.9,13,0.00,CLR,,0.00,WeatherDisplay:10.37,2013-02-25 02:13:00,
2013-02-24 21:14:00,43.6,-4.1,30.05,North,360,0.0,2.3,13,0.00,CLR,,0.00,WeatherDisplay:10.37,2013-02-25 02:14:00,
2013-02-24 21:15:00,43.5,-2.6,30.05,North,360,0.0,2.3,14,0.00,CLR,,0.00,WeatherDisplay:10.37,2013-02-25 02:15:00,
2013-02-24 21:17:00,43.7,-2.5,30.05,North,360,0.0,0.0,14,0.00,CLR,,0.00,WeatherDisplay:10.37,2013-02-25 02:17:00,
2013-02-24 21:18:00,43.7,-2.5,30.05,North,360,0.0,0.0,14,0.00,CLR,,0.00,WeatherDisplay:10.37,2013-02-25 02:18:00,
2013-02-24 21:20:00,43.3,-2.8,30.05,North,360,0.0,0.0,14,0.00,CLR,,0.00,WeatherDisplay:10.37,2013-02-25 02:20:00,
2013-02-24 21:21:00,43.0,-3.0,30.05,North,360,0.0,0.0,14,0.00,CLR,,0.00,WeatherDisplay:10.37,2013-02-25 02:21:00,
2013-02-24 21:22:00,43.2,-2.9,30.05,North,360,0.0,0.0,14,0.00,CLR,,0.00,WeatherDisplay:10.37,2013-02-25 02:22:00,
2013-02-24 21:23:00,43.0,-1.6,30.05,North,360,0.0,0.0,15,0.00,CLR,,0.00,WeatherDisplay:10.37,2013-02-25 02:23:00,
2013-02-24 21:25:00,42.9,-1.7,30.05,North,360,0.0,0.0,15,0.00,CLR,,0.00,WeatherDisplay:10.37,2013-02-25 02:25:00,
2013-02-24 21:26:00,42.9,-1.7,30.05,North,360,0.0,0.0,15,0.00,CLR,,0.00,WeatherDisplay:10.37,2013-02-25 02:26:00,
2013-02-24 21:27:00,42.9,-1.7,30.06,North,360,0.0,0.0,15,0.00,CLR,,0.00,WeatherDisplay:10.37,2013-02-25 02:27:00,
2013-02-24 21:28:00,42.8,-0.4,30.06,North,360,0.0,0.0,16,0.00,CLR,,0.00,WeatherDisplay:10.37,2013-02-25 02:28:00,
2013-02-24 21:30:00,42.8,-0.4,30.06,North,360,0.0,0.0,16,0.00,CLR,,0.00,WeatherDisplay:10.37,2013-02-25 02:30:00,
2013-02-24 21:31:00,42.5,-0.6,30.06,North,360,0.0,0.0,16,0.00,CLR,,0.00,WeatherDisplay:10.37,2013-02-25 02:31:00,
2013-02-24 21:32:00,42.6,-0.5,30.06,North,360,0.0,0.0,16,0.00,CLR,,0.00,WeatherDisplay:10.37,2013-02-25 02:32:00,
2013-02-24 21:33:00,42.4,-0.7,30.06,North,360,0.0,0.0,16,0.00,CLR,,0.00,WeatherDisplay:10.37,2013-02-25 02:33:00,
2013-02-24 21:35:00,42.6,-0.5,30.06,North,360,0.0,0.0,16,0.00,CLR,,0.00,WeatherDisplay:10.37,2013-02-25 02:35:00,
2013-02-24 21:36:00,42.4,-0.7,30.06,North,360,0.0,0.0,16,0.00,CLR,,0.00,WeatherDisplay:10.37,2013-02-25 02:36:00,
2013-02-24 21:38:00,42.4,-0.7,30.06,North,360,0.0,0.0,16,0.00,CLR,,0.00,WeatherDisplay:10.37,2013-02-25 02:38:00,
2013-02-24 21:40:00,42.6,-0.5,30.06,North,360,0.0,0.0,16,0.00,CLR,,0.00,WeatherDisplay:10.37,2013-02-25 02:40:00,
2013-02-24 21:41:00,42.4,-0.7,30.06,North,360,0.0,0.0,16,0.00,CLR,,0.00,WeatherDisplay:10.37,2013-02-25 02:41:00,
2013-02-24 21:43:00,42.1,-1.0,30.06,North,360,0.9,0.0,16,0.00,CLR,,0.00,WeatherDisplay:10.37,2013-02-25 02:43:00,
2013-02-24 21:45:00,42.4,-0.7,30.06,North,360,0.0,0.0,16,0.00,CLR,,0.00,WeatherDisplay:10.37,2013-02-25 02:45:00,
2013-02-24 21:46:00,42.2,-0.9,30.06,North,360,0.0,0.0,16,0.00,CLR,,0.00,WeatherDisplay:10.37,2013-02-25 02:46:00,
2013-02-24 21:48:00,42.4,-0.7,30.06,North,3,0.9,5.2,16,0.00,CLR,,0.00,WeatherDisplay:10.37,2013-02-25 02:48:00,
2013-02-24 21:50:00,42.5,-0.6,30.06,North,11,4.3,7.1,16,0.00,CLR,,0.00,WeatherDisplay:10.37,2013-02-25 02:50:00,
2013-02-24 21:51:00,42.6,-0.5,30.06,NNE,16,3.3,5.8,16,0.00,CLR,,0.00,WeatherDisplay:10.37,2013-02-25 02:51:00,
2013-02-24 21:53:00,42.5,-0.6,30.06,NNE,16,0.0,0.0,16,0.00,CLR,,0.00,WeatherDisplay:10.37,2013-02-25 02:53:00,
2013-02-24 21:55:00,42.3,-0.8,30.06,North,6,1.1,5.8,16,0.00,CLR,,0.00,WeatherDisplay:10.37,2013-02-25 02:55:00,
2013-02-24 21:56:00,42.4,-0.7,30.06,North,6,0.4,5.8,16,0.00,CLR,,0.00,WeatherDisplay:10.37,2013-02-25 02:56:00,
2013-02-24 21:58:00,42.7,-0.5,30.06,NNW,340,1.6,5.8,16,0.00,CLR,,0.00,WeatherDisplay:10.37,2013-02-25 02:58:00,
2013-02-24 21:59:00,42.4,-0.7,30.06,NNW,340,0.0,4.6,16,0.00,CLR,,0.00,WeatherDisplay:10.37,2013-02-25 02:59:00,
2013-02-24 22:01:00,42.5,-0.6,30.06,NNE,16,1.0,3.5,16,0.00,CLR,,0.00,WeatherDisplay:10.37,2013-02-25 03:01:00,
2013-02-24 22:03:00,42.0,-1.0,30.06,North,10,0.0,0.0,16,0.00,CLR,,0.00,WeatherDisplay:10.37,2013-02-25 03:03:00,
2013-02-24 22:04:00,42.3,-0.8,30.06,North,10,0.0,0.0,16,0.00,CLR,,0.00,WeatherDisplay:10.37,2013-02-25 03:04:00,
2013-02-24 22:06:00,42.1,-1.0,30.06,NNW,329,0.4,6.9,16,0.00,CLR,,0.00,WeatherDisplay:10.37,2013-02-25 03:06:00,
2013-02-24 22:08:00,42.2,-0.9,30.06,North,10,3.8,8.1,16,0.00,CLR,,0.00,WeatherDisplay:10.37,2013-02-25 03:08:00,
2013-02-24 22:09:00,42.1,-1.0,30.07,North,7,5.1,8.1,16,0.00,CLR,,0.00,WeatherDisplay:10.37,2013-02-25 03:09:00,
2013-02-24 22:11:00,42.1,0.3,30.07,North,360,1.4,5.8,17,0.00,CLR,,0.00,WeatherDisplay:10.37,2013-02-25 03:11:00,
2013-02-24 22:13:00,42.3,0.5,30.07,North,354,1.7,5.2,17,0.00,CLR,,0.00,WeatherDisplay:10.37,2013-02-25 03:13:00,
2013-02-24 22:14:00,42.0,0.3,30.07,North,360,4.9,9.2,17,0.00,CLR,,0.00,WeatherDisplay:10.37,2013-02-25 03:14:00,
2013-02-24 22:17:00,42.1,0.3,30.07,NNW,340,3.2,8.1,17,0.00,CLR,,0.00,WeatherDisplay:10.37,2013-02-25 03:17:00,
2013-02-24 22:19:00,41.8,0.1,30.07,NW,323,1.5,5.8,17,0.00,CLR,,0.00,WeatherDisplay:10.37,2013-02-25 03:19:00,
2013-02-24 22:22:00,42.2,0.4,30.07,North,0,2.4,5.9,17,0.00,CLR,,0.00,WeatherDisplay:10.37,2013-02-25 03:22:00,
2013-02-24 22:24:00,42.0,0.3,30.06,NNW,347,0.0,6.9,17,0.00,CLR,,0.00,WeatherDisplay:10.37,2013-02-25 03:24:00,
2013-02-24 22:27:00,41.9,-1.1,30.06,North,4,6.8,11.7,16,0.00,CLR,,0.00,WeatherDisplay:10.37,2013-02-25 03:27:00,
2013-02-24 22:29:00,42.0,0.3,30.06,North,360,4.1,6.9,17,0.00,CLR,,0.00,WeatherDisplay:10.37,2013-02-25 03:29:00,
2013-02-24 22:32:00,41.9,0.2,30.06,North,11,5.1,6.9,17,0.00,CLR,,0.00,WeatherDisplay:10.37,2013-02-25 03:32:00,
2013-02-24 22:34:00,41.5,-0.2,30.06,North,10,4.2,9.2,17,0.00,CLR,,0.00,WeatherDisplay:10.37,2013-02-25 03:34:00,
2013-02-24 22:37:00,41.8,0.1,30.06,North,6,3.9,7.1,17,0.00,CLR,,0.00,WeatherDisplay:10.37,2013-02-25 03:37:00,
2013-02-24 22:39:00,41.6,-0.1,30.06,North,8,4.4,9.2,17,0.00,CLR,,0.00,WeatherDisplay:10.37,2013-02-25 03:39:00,
2013-02-24 22:40:00,41.4,1.0,30.06,NNE,20,5.7,9.2,18,0.00,CLR,,0.00,WeatherDisplay:10.37,2013-02-25 03:40:00,
2013-02-24 22:42:00,41.3,0.9,30.06,North,8,4.9,11.5,18,0.00,CLR,,0.00,WeatherDisplay:10.37,2013-02-25 03:42:00,
2013-02-24 22:44:00,41.5,1.1,30.06,NNE,32,5.3,8.1,18,0.00,CLR,,0.00,WeatherDisplay:10.37,2013-02-25 03:44:00,
2013-02-24 22:45:00,41.1,0.7,30.06,North,7,6.0,9.4,18,0.00,CLR,,0.00,WeatherDisplay:10.37,2013-02-25 03:45:00,
2013-02-24 22:47:00,41.6,1.1,30.06,NNE,14,5.3,6.9,18,0.00,CLR,,0.00,WeatherDisplay:10.37,2013-02-25 03:47:00,
2013-02-24 22:49:00,41.7,1.2,30.06,North,350,0.7,4.8,18,0.00,CLR,,0.00,WeatherDisplay:10.37,2013-02-25 03:49:00,
2013-02-24 22:50:00,41.2,0.8,30.06,North,3,2.0,4.6,18,0.00,CLR,,0.00,WeatherDisplay:10.37,2013-02-25 03:50:00,
2013-02-24 22:52:00,41.3,0.9,30.06,NNW,340,3.1,6.9,18,0.00,CLR,,0.00,WeatherDisplay:10.37,2013-02-25 03:52:00,
2013-02-24 22:54:00,41.1,0.7,30.06,NNE,13,4.1,9.2,18,0.00,CLR,,0.00,WeatherDisplay:10.37,2013-02-25 03:54:00,
2013-02-24 22:55:00,41.2,0.8,30.06,North,11,5.6,9.3,18,0.00,CLR,,0.00,WeatherDisplay:10.37,2013-02-25 03:55:00,
2013-02-24 22:57:00,41.4,1.0,30.06,North,6,1.5,6.2,18,0.00,CLR,,0.00,WeatherDisplay:10.37,2013-02-25 03:57:00,
2013-02-24 22:58:00,41.4,1.0,30.06,North,354,3.6,6.2,18,0.00,CLR,,0.00,WeatherDisplay:10.37,2013-02-25 03:58:00,
2013-02-24 23:00:00,41.3,2.1,30.06,NNE,13,0.3,0.0,19,0.00,CLR,,0.00,WeatherDisplay:10.37,2013-02-25 04:00:00,
2013-02-24 23:02:00,41.0,1.8,30.06,North,350,0.6,3.5,19,0.00,CLR,,0.00,WeatherDisplay:10.37,2013-02-25 04:02:00,
2013-02-24 23:03:00,40.8,1.6,30.06,North,350,0.4,3.5,19,0.00,CLR,,0.00,WeatherDisplay:10.37,2013-02-25 04:03:00,
2013-02-24 23:05:00,41.1,1.9,30.06,North,350,0.3,3.5,19,0.00,CLR,,0.00,WeatherDisplay:10.37,2013-02-25 04:05:00,
2013-02-24 23:08:00,40.6,2.6,30.06,North,350,0.0,0.0,20,0.00,CLR,,0.00,WeatherDisplay:10.37,2013-02-25 04:08:00,
2013-02-24 23:10:00,40.5,2.5,30.06,North,4,5.0,7.4,20,0.00,CLR,,0.00,WeatherDisplay:10.37,2013-02-25 04:10:00,
2013-02-24 23:11:00,40.2,2.2,30.06,North,0,5.4,9.2,20,0.00,CLR,,0.00,WeatherDisplay:10.37,2013-02-25 04:11:00,
2013-02-24 23:13:00,40.7,2.7,30.06,North,0,0.0,3.5,20,0.00,CLR,,0.00,WeatherDisplay:10.37,2013-02-25 04:13:00,
2013-02-24 23:15:00,40.6,2.6,30.06,North,356,0.9,7.7,20,0.00,CLR,,0.00,WeatherDisplay:10.37,2013-02-25 04:15:00,
2013-02-24 23:16:00,40.6,2.6,30.06,North,6,5.1,8.1,20,0.00,CLR,,0.00,WeatherDisplay:10.37,2013-02-25 04:16:00,
2013-02-24 23:18:00,40.4,2.4,30.06,North,360,4.9,6.9,20,0.00,CLR,,0.00,WeatherDisplay:10.37,2013-02-25 04:18:00,
2013-02-24 23:19:00,40.6,2.6,30.06,North,4,2.7,5.8,20,0.00,CLR,,0.00,WeatherDisplay:10.37,2013-02-25 04:19:00,
2013-02-24 23:20:00,40.5,2.5,30.06,NNE,16,2.7,5.8,20,0.00,CLR,,0.00,WeatherDisplay:10.37,2013-02-25 04:20:00,
2013-02-24 23:21:00,40.6,2.6,30.06,North,0,4.6,8.2,20,0.00,CLR,,0.00,WeatherDisplay:10.37,2013-02-25 04:21:00,
2013-02-24 23:23:00,40.8,2.7,30.06,NNE,20,0.4,4.6,20,0.00,CLR,,0.00,WeatherDisplay:10.37,2013-02-25 04:23:00,
2013-02-24 23:24:00,40.8,2.7,30.06,NNW,343,0.6,4.6,20,0.00,CLR,,0.00,WeatherDisplay:10.37,2013-02-25 04:24:00,
2013-02-24 23:25:00,40.6,2.6,30.06,NNW,344,0.5,9.1,20,0.00,CLR,,0.00,WeatherDisplay:10.37,2013-02-25 04:25:00,
2013-02-24 23:26:00,40.6,2.6,30.06,North,357,6.1,10.4,20,0.00,CLR,,0.00,WeatherDisplay:10.37,2013-02-25 04:26:00,
2013-02-24 23:28:00,40.3,2.3,30.06,North,3,4.6,6.9,20,0.00,CLR,,0.00,WeatherDisplay:10.37,2013-02-25 04:28:00,
2013-02-24 23:29:00,40.3,2.3,30.06,North,356,5.1,8.1,20,0.00,CLR,,0.00,WeatherDisplay:10.37,2013-02-25 04:29:00,
2013-02-24 23:30:00,40.5,2.5,30.06,North,356,5.4,6.9,20,0.00,CLR,,0.00,WeatherDisplay:10.37,2013-02-25 04:30:00,
2013-02-24 23:31:00,40.5,3.6,30.06,North,3,3.7,8.1,21,0.00,CLR,,0.00,WeatherDisplay:10.37,2013-02-25 04:31:00,
2013-02-24 23:34:00,40.6,3.6,30.06,North,1,3.0,9.2,21,0.00,CLR,,0.00,WeatherDisplay:10.37,2013-02-25 04:34:00,
2013-02-24 23:35:00,40.5,3.6,30.06,North,1,3.9,6.9,21,0.00,CLR,,0.00,WeatherDisplay:10.37,2013-02-25 04:35:00,
2013-02-24 23:37:00,40.7,3.7,30.06,NNW,333,2.2,4.6,21,0.00,CLR,,0.00,WeatherDisplay:10.37,2013-02-25 04:37:00,
2013-02-24 23:38:00,40.3,3.4,30.07,NNW,333,0.0,2.3,21,0.00,CLR,,0.00,WeatherDisplay:10.37,2013-02-25 04:38:00,
2013-02-24 23:40:00,40.5,3.6,30.07,NNW,333,0.0,0.0,21,0.00,CLR,,0.00,WeatherDisplay:10.37,2013-02-25 04:40:00,
2013-02-24 23:42:00,40.3,3.4,30.06,NNW,333,0.0,0.0,21,0.00,CLR,,0.00,WeatherDisplay:10.37,2013-02-25 04:42:00,
2013-02-24 23:44:00,40.2,3.3,30.07,NNW,333,0.0,0.0,21,0.00,CLR,,0.00,WeatherDisplay:10.37,2013-02-25 04:44:00,
2013-02-24 23:45:00,40.0,3.1,30.07,NNW,333,0.0,0.0,21,0.00,CLR,,0.00,WeatherDisplay:10.37,2013-02-25 04:45:00,
2013-02-24 23:48:00,39.9,4.1,30.07,North,1,1.2,5.9,22,0.00,CLR,,0.00,WeatherDisplay:10.37,2013-02-25 04:48:00,
2013-02-24 23:49:00,39.9,4.1,30.07,NNW,347,1.6,5.8,22,0.00,CLR,,0.00,WeatherDisplay:10.37,2013-02-25 04:49:00,
2013-02-24 23:51:00,40.2,4.3,30.07,NNW,347,0.0,0.0,22,0.00,CLR,,0.00,WeatherDisplay:10.37,2013-02-25 04:51:00,
2013-02-24 23:53:00,39.9,4.1,30.07,NNW,347,0.0,0.0,22,0.00,CLR,,0.00,WeatherDisplay:10.37,2013-02-25 04:53:00,
2013-02-24 23:54:00,39.7,3.9,30.08,NNW,347,0.0,0.0,22,0.00,CLR,,0.00,WeatherDisplay:10.37,2013-02-25 04:54:00,
2013-02-24 23:56:00,39.8,4.0,30.08,NNW,343,0.0,2.3,22,0.00,CLR,,0.00,WeatherDisplay:10.37,2013-02-25 04:56:00,
2013-02-24 23:58:00,39.8,4.0,30.08,NNW,343,0.0,0.0,22,0.00,CLR,,0.00,WeatherDisplay:10.37,2013-02-25 04:58:00,